<?xml version="1.0" encoding="UTF-8" standalone="no" ?>
<gpx xmlns="http://www.topografix.com/GPX/1/1" xmlns:xsi="http://www.w3.org/2001/XMLSchema-instance" xsi:schemaLocation="http://www.topografix.com/GPX/1/1 http://www.topografix.com/GPX/1/1/gpx.xsd" version="1.1" creator="VisuGPX - https://www.visugpx.com">
  <metadata>
    <name>Tête de Viladel Bec du Lièvre</name>
  </metadata>
  <trk>
    <name><![CDATA[2023-02-14 08:06:25]]></name>
    <trkseg>
      <trkpt lat="44.42723" lon="6.89255">
        <ele>1956.42</ele>
        <time>2023-02-13T07:29:08Z</time>
      </trkpt>
      <trkpt lat="44.42726" lon="6.89257">
        <ele>1959.3</ele>
        <time>2023-02-13T07:29:55Z</time>
      </trkpt>
      <trkpt lat="44.42736" lon="6.89248">
        <ele>1962.67</ele>
        <time>2023-02-13T07:30:43Z</time>
      </trkpt>
      <trkpt lat="44.42741" lon="6.89258">
        <ele>1965.07</ele>
        <time>2023-02-13T07:31:26Z</time>
      </trkpt>
      <trkpt lat="44.42745" lon="6.89259">
        <ele>1965.07</ele>
        <time>2023-02-13T07:33:33Z</time>
      </trkpt>
      <trkpt lat="44.42752" lon="6.89261">
        <ele>1966.51</ele>
        <time>2023-02-13T07:34:35Z</time>
      </trkpt>
      <trkpt lat="44.42758" lon="6.89278">
        <ele>1969.4</ele>
        <time>2023-02-13T07:35:04Z</time>
      </trkpt>
      <trkpt lat="44.42759" lon="6.89273">
        <ele>1968.92</ele>
        <time>2023-02-13T07:37:22Z</time>
      </trkpt>
      <trkpt lat="44.42767" lon="6.89286">
        <ele>1970.84</ele>
        <time>2023-02-13T07:37:50Z</time>
      </trkpt>
      <trkpt lat="44.4278" lon="6.89304">
        <ele>1973.72</ele>
        <time>2023-02-13T07:38:17Z</time>
      </trkpt>
      <trkpt lat="44.42788" lon="6.89315">
        <ele>1976.61</ele>
        <time>2023-02-13T07:38:44Z</time>
      </trkpt>
      <trkpt lat="44.42809" lon="6.89323">
        <ele>1977.57</ele>
        <time>2023-02-13T07:39:15Z</time>
      </trkpt>
      <trkpt lat="44.42826" lon="6.89326">
        <ele>1978.05</ele>
        <time>2023-02-13T07:39:37Z</time>
      </trkpt>
      <trkpt lat="44.42838" lon="6.89327">
        <ele>1979.97</ele>
        <time>2023-02-13T07:39:54Z</time>
      </trkpt>
      <trkpt lat="44.42847" lon="6.89329">
        <ele>1981.41</ele>
        <time>2023-02-13T07:40:08Z</time>
      </trkpt>
      <trkpt lat="44.42858" lon="6.89335">
        <ele>1982.86</ele>
        <time>2023-02-13T07:40:23Z</time>
      </trkpt>
      <trkpt lat="44.42867" lon="6.89341">
        <ele>1984.3</ele>
        <time>2023-02-13T07:40:37Z</time>
      </trkpt>
      <trkpt lat="44.42875" lon="6.89359">
        <ele>1986.7</ele>
        <time>2023-02-13T07:41:03Z</time>
      </trkpt>
      <trkpt lat="44.42888" lon="6.89373">
        <ele>1988.62</ele>
        <time>2023-02-13T07:41:27Z</time>
      </trkpt>
      <trkpt lat="44.42897" lon="6.89388">
        <ele>1989.1</ele>
        <time>2023-02-13T07:41:44Z</time>
      </trkpt>
      <trkpt lat="44.42908" lon="6.89405">
        <ele>1992.95</ele>
        <time>2023-02-13T07:42:11Z</time>
      </trkpt>
      <trkpt lat="44.42917" lon="6.8942">
        <ele>1996.32</ele>
        <time>2023-02-13T07:42:38Z</time>
      </trkpt>
      <trkpt lat="44.42931" lon="6.89438">
        <ele>2000.16</ele>
        <time>2023-02-13T07:43:06Z</time>
      </trkpt>
      <trkpt lat="44.42944" lon="6.89453">
        <ele>2003.52</ele>
        <time>2023-02-13T07:43:33Z</time>
      </trkpt>
      <trkpt lat="44.42951" lon="6.89461">
        <ele>2004.97</ele>
        <time>2023-02-13T07:43:48Z</time>
      </trkpt>
      <trkpt lat="44.42964" lon="6.89477">
        <ele>2008.81</ele>
        <time>2023-02-13T07:44:15Z</time>
      </trkpt>
      <trkpt lat="44.4297" lon="6.89487">
        <ele>2010.73</ele>
        <time>2023-02-13T07:44:29Z</time>
      </trkpt>
      <trkpt lat="44.42977" lon="6.89496">
        <ele>2011.7</ele>
        <time>2023-02-13T07:44:43Z</time>
      </trkpt>
      <trkpt lat="44.42989" lon="6.8951">
        <ele>2015.06</ele>
        <time>2023-02-13T07:45:09Z</time>
      </trkpt>
      <trkpt lat="44.42998" lon="6.89518">
        <ele>2016.02</ele>
        <time>2023-02-13T07:45:23Z</time>
      </trkpt>
      <trkpt lat="44.4301" lon="6.89525">
        <ele>2019.39</ele>
        <time>2023-02-13T07:45:49Z</time>
      </trkpt>
      <trkpt lat="44.43021" lon="6.89534">
        <ele>2022.75</ele>
        <time>2023-02-13T07:46:14Z</time>
      </trkpt>
      <trkpt lat="44.43029" lon="6.89548">
        <ele>2027.08</ele>
        <time>2023-02-13T07:46:40Z</time>
      </trkpt>
      <trkpt lat="44.43039" lon="6.89559">
        <ele>2030.44</ele>
        <time>2023-02-13T07:47:07Z</time>
      </trkpt>
      <trkpt lat="44.43046" lon="6.89572">
        <ele>2033.33</ele>
        <time>2023-02-13T07:47:32Z</time>
      </trkpt>
      <trkpt lat="44.43056" lon="6.89589">
        <ele>2036.69</ele>
        <time>2023-02-13T07:48:00Z</time>
      </trkpt>
      <trkpt lat="44.43065" lon="6.89595">
        <ele>2038.13</ele>
        <time>2023-02-13T07:48:15Z</time>
      </trkpt>
      <trkpt lat="44.43078" lon="6.89588">
        <ele>2041.98</ele>
        <time>2023-02-13T07:48:40Z</time>
      </trkpt>
      <trkpt lat="44.43092" lon="6.89572">
        <ele>2045.82</ele>
        <time>2023-02-13T07:49:07Z</time>
      </trkpt>
      <trkpt lat="44.43098" lon="6.89563">
        <ele>2047.26</ele>
        <time>2023-02-13T07:49:22Z</time>
      </trkpt>
      <trkpt lat="44.43106" lon="6.89553">
        <ele>2047.75</ele>
        <time>2023-02-13T07:49:36Z</time>
      </trkpt>
      <trkpt lat="44.43114" lon="6.89535">
        <ele>2050.15</ele>
        <time>2023-02-13T07:50:01Z</time>
      </trkpt>
      <trkpt lat="44.43118" lon="6.89519">
        <ele>2053.03</ele>
        <time>2023-02-13T07:50:25Z</time>
      </trkpt>
      <trkpt lat="44.43121" lon="6.89503">
        <ele>2055.44</ele>
        <time>2023-02-13T07:50:49Z</time>
      </trkpt>
      <trkpt lat="44.4313" lon="6.89508">
        <ele>2058.32</ele>
        <time>2023-02-13T07:51:12Z</time>
      </trkpt>
      <trkpt lat="44.43139" lon="6.8951">
        <ele>2063.13</ele>
        <time>2023-02-13T07:51:45Z</time>
      </trkpt>
      <trkpt lat="44.43145" lon="6.89522">
        <ele>2066.01</ele>
        <time>2023-02-13T07:52:11Z</time>
      </trkpt>
      <trkpt lat="44.4315" lon="6.89531">
        <ele>2069.86</ele>
        <time>2023-02-13T07:52:46Z</time>
      </trkpt>
      <trkpt lat="44.43164" lon="6.89532">
        <ele>2073.7</ele>
        <time>2023-02-13T07:53:08Z</time>
      </trkpt>
      <trkpt lat="44.43174" lon="6.8952">
        <ele>2077.07</ele>
        <time>2023-02-13T07:53:35Z</time>
      </trkpt>
      <trkpt lat="44.4318" lon="6.89509">
        <ele>2080.91</ele>
        <time>2023-02-13T07:54:00Z</time>
      </trkpt>
      <trkpt lat="44.43192" lon="6.895">
        <ele>2084.28</ele>
        <time>2023-02-13T07:54:26Z</time>
      </trkpt>
      <trkpt lat="44.43203" lon="6.89496">
        <ele>2087.64</ele>
        <time>2023-02-13T07:54:51Z</time>
      </trkpt>
      <trkpt lat="44.43212" lon="6.89493">
        <ele>2091</ele>
        <time>2023-02-13T07:55:16Z</time>
      </trkpt>
      <trkpt lat="44.4322" lon="6.89486">
        <ele>2095.33</ele>
        <time>2023-02-13T07:55:42Z</time>
      </trkpt>
      <trkpt lat="44.43228" lon="6.89481">
        <ele>2098.21</ele>
        <time>2023-02-13T07:56:05Z</time>
      </trkpt>
      <trkpt lat="44.43236" lon="6.89476">
        <ele>2101.58</ele>
        <time>2023-02-13T07:56:31Z</time>
      </trkpt>
      <trkpt lat="44.43238" lon="6.89461">
        <ele>2104.94</ele>
        <time>2023-02-13T07:56:57Z</time>
      </trkpt>
      <trkpt lat="44.43249" lon="6.89471">
        <ele>2107.35</ele>
        <time>2023-02-13T07:57:22Z</time>
      </trkpt>
      <trkpt lat="44.43259" lon="6.89477">
        <ele>2109.75</ele>
        <time>2023-02-13T07:57:46Z</time>
      </trkpt>
      <trkpt lat="44.43254" lon="6.89473">
        <ele>2110.23</ele>
        <time>2023-02-13T07:59:39Z</time>
      </trkpt>
      <trkpt lat="44.43259" lon="6.89475">
        <ele>2110.71</ele>
        <time>2023-02-13T08:01:19Z</time>
      </trkpt>
      <trkpt lat="44.43267" lon="6.89474">
        <ele>2111.67</ele>
        <time>2023-02-13T08:02:54Z</time>
      </trkpt>
      <trkpt lat="44.43275" lon="6.89479">
        <ele>2112.63</ele>
        <time>2023-02-13T08:03:08Z</time>
      </trkpt>
      <trkpt lat="44.43286" lon="6.89481">
        <ele>2115.52</ele>
        <time>2023-02-13T08:03:31Z</time>
      </trkpt>
      <trkpt lat="44.43292" lon="6.89469">
        <ele>2119.36</ele>
        <time>2023-02-13T08:03:55Z</time>
      </trkpt>
      <trkpt lat="44.43302" lon="6.89476">
        <ele>2122.25</ele>
        <time>2023-02-13T08:04:18Z</time>
      </trkpt>
      <trkpt lat="44.43315" lon="6.89482">
        <ele>2125.61</ele>
        <time>2023-02-13T08:04:44Z</time>
      </trkpt>
      <trkpt lat="44.43332" lon="6.89486">
        <ele>2128.5</ele>
        <time>2023-02-13T08:05:12Z</time>
      </trkpt>
      <trkpt lat="44.43348" lon="6.89497">
        <ele>2130.42</ele>
        <time>2023-02-13T08:05:42Z</time>
      </trkpt>
      <trkpt lat="44.43356" lon="6.89505">
        <ele>2130.9</ele>
        <time>2023-02-13T08:05:56Z</time>
      </trkpt>
      <trkpt lat="44.43365" lon="6.89509">
        <ele>2131.38</ele>
        <time>2023-02-13T08:06:10Z</time>
      </trkpt>
      <trkpt lat="44.43372" lon="6.89518">
        <ele>2131.86</ele>
        <time>2023-02-13T08:06:24Z</time>
      </trkpt>
      <trkpt lat="44.43379" lon="6.89526">
        <ele>2132.82</ele>
        <time>2023-02-13T08:06:37Z</time>
      </trkpt>
      <trkpt lat="44.43391" lon="6.89538">
        <ele>2135.23</ele>
        <time>2023-02-13T08:07:04Z</time>
      </trkpt>
      <trkpt lat="44.43404" lon="6.89552">
        <ele>2138.11</ele>
        <time>2023-02-13T08:07:31Z</time>
      </trkpt>
      <trkpt lat="44.43412" lon="6.89561">
        <ele>2140.03</ele>
        <time>2023-02-13T08:07:47Z</time>
      </trkpt>
      <trkpt lat="44.43425" lon="6.89575">
        <ele>2142.92</ele>
        <time>2023-02-13T08:08:14Z</time>
      </trkpt>
      <trkpt lat="44.43431" lon="6.89587">
        <ele>2144.36</ele>
        <time>2023-02-13T08:08:29Z</time>
      </trkpt>
      <trkpt lat="44.43438" lon="6.89599">
        <ele>2145.32</ele>
        <time>2023-02-13T08:08:44Z</time>
      </trkpt>
      <trkpt lat="44.4345" lon="6.89623">
        <ele>2148.2</ele>
        <time>2023-02-13T08:09:16Z</time>
      </trkpt>
      <trkpt lat="44.4346" lon="6.89637">
        <ele>2151.09</ele>
        <time>2023-02-13T08:09:41Z</time>
      </trkpt>
      <trkpt lat="44.43468" lon="6.89651">
        <ele>2151.09</ele>
        <time>2023-02-13T08:09:56Z</time>
      </trkpt>
      <trkpt lat="44.43474" lon="6.89663">
        <ele>2152.53</ele>
        <time>2023-02-13T08:10:09Z</time>
      </trkpt>
      <trkpt lat="44.4348" lon="6.89674">
        <ele>2153.49</ele>
        <time>2023-02-13T08:10:23Z</time>
      </trkpt>
      <trkpt lat="44.43484" lon="6.89687">
        <ele>2154.45</ele>
        <time>2023-02-13T08:10:37Z</time>
      </trkpt>
      <trkpt lat="44.43488" lon="6.89699">
        <ele>2155.89</ele>
        <time>2023-02-13T08:10:51Z</time>
      </trkpt>
      <trkpt lat="44.43491" lon="6.89713">
        <ele>2157.82</ele>
        <time>2023-02-13T08:11:05Z</time>
      </trkpt>
      <trkpt lat="44.43499" lon="6.89729">
        <ele>2158.78</ele>
        <time>2023-02-13T08:11:26Z</time>
      </trkpt>
      <trkpt lat="44.43504" lon="6.89744">
        <ele>2160.22</ele>
        <time>2023-02-13T08:11:40Z</time>
      </trkpt>
      <trkpt lat="44.43511" lon="6.89756">
        <ele>2161.18</ele>
        <time>2023-02-13T08:11:54Z</time>
      </trkpt>
      <trkpt lat="44.43518" lon="6.89768">
        <ele>2161.66</ele>
        <time>2023-02-13T08:12:08Z</time>
      </trkpt>
      <trkpt lat="44.43526" lon="6.89784">
        <ele>2162.14</ele>
        <time>2023-02-13T08:12:23Z</time>
      </trkpt>
      <trkpt lat="44.4353" lon="6.89797">
        <ele>2163.1</ele>
        <time>2023-02-13T08:12:35Z</time>
      </trkpt>
      <trkpt lat="44.43537" lon="6.89816">
        <ele>2164.55</ele>
        <time>2023-02-13T08:12:53Z</time>
      </trkpt>
      <trkpt lat="44.43542" lon="6.89827">
        <ele>2165.99</ele>
        <time>2023-02-13T08:13:05Z</time>
      </trkpt>
      <trkpt lat="44.43548" lon="6.89837">
        <ele>2167.43</ele>
        <time>2023-02-13T08:13:18Z</time>
      </trkpt>
      <trkpt lat="44.43557" lon="6.89853">
        <ele>2171.27</ele>
        <time>2023-02-13T08:13:42Z</time>
      </trkpt>
      <trkpt lat="44.43564" lon="6.89862">
        <ele>2175.12</ele>
        <time>2023-02-13T08:14:02Z</time>
      </trkpt>
      <trkpt lat="44.43574" lon="6.89875">
        <ele>2178.48</ele>
        <time>2023-02-13T08:14:25Z</time>
      </trkpt>
      <trkpt lat="44.43581" lon="6.89883">
        <ele>2179.45</ele>
        <time>2023-02-13T08:14:39Z</time>
      </trkpt>
      <trkpt lat="44.43594" lon="6.89893">
        <ele>2181.37</ele>
        <time>2023-02-13T08:14:58Z</time>
      </trkpt>
      <trkpt lat="44.43601" lon="6.89903">
        <ele>2181.85</ele>
        <time>2023-02-13T08:15:10Z</time>
      </trkpt>
      <trkpt lat="44.4361" lon="6.89921">
        <ele>2183.29</ele>
        <time>2023-02-13T08:15:33Z</time>
      </trkpt>
      <trkpt lat="44.4361" lon="6.8994">
        <ele>2186.66</ele>
        <time>2023-02-13T08:15:54Z</time>
      </trkpt>
      <trkpt lat="44.43615" lon="6.89964">
        <ele>2190.02</ele>
        <time>2023-02-13T08:16:20Z</time>
      </trkpt>
      <trkpt lat="44.43616" lon="6.89979">
        <ele>2191.94</ele>
        <time>2023-02-13T08:16:37Z</time>
      </trkpt>
      <trkpt lat="44.43618" lon="6.90001">
        <ele>2194.35</ele>
        <time>2023-02-13T08:17:03Z</time>
      </trkpt>
      <trkpt lat="44.43617" lon="6.90018">
        <ele>2195.31</ele>
        <time>2023-02-13T08:17:17Z</time>
      </trkpt>
      <trkpt lat="44.43616" lon="6.90031">
        <ele>2196.27</ele>
        <time>2023-02-13T08:17:29Z</time>
      </trkpt>
      <trkpt lat="44.43619" lon="6.90055">
        <ele>2197.71</ele>
        <time>2023-02-13T08:17:51Z</time>
      </trkpt>
      <trkpt lat="44.43623" lon="6.90068">
        <ele>2198.67</ele>
        <time>2023-02-13T08:18:04Z</time>
      </trkpt>
      <trkpt lat="44.43634" lon="6.90088">
        <ele>2201.56</ele>
        <time>2023-02-13T08:18:30Z</time>
      </trkpt>
      <trkpt lat="44.43641" lon="6.90098">
        <ele>2202.52</ele>
        <time>2023-02-13T08:18:42Z</time>
      </trkpt>
      <trkpt lat="44.43646" lon="6.90111">
        <ele>2203.48</ele>
        <time>2023-02-13T08:18:56Z</time>
      </trkpt>
      <trkpt lat="44.43652" lon="6.90123">
        <ele>2203.96</ele>
        <time>2023-02-13T08:19:09Z</time>
      </trkpt>
      <trkpt lat="44.4366" lon="6.9014">
        <ele>2205.88</ele>
        <time>2023-02-13T08:19:28Z</time>
      </trkpt>
      <trkpt lat="44.43669" lon="6.90157">
        <ele>2207.32</ele>
        <time>2023-02-13T08:19:47Z</time>
      </trkpt>
      <trkpt lat="44.43676" lon="6.90167">
        <ele>2207.81</ele>
        <time>2023-02-13T08:20:02Z</time>
      </trkpt>
      <trkpt lat="44.43682" lon="6.90177">
        <ele>2207.81</ele>
        <time>2023-02-13T08:20:15Z</time>
      </trkpt>
      <trkpt lat="44.43687" lon="6.90201">
        <ele>2209.73</ele>
        <time>2023-02-13T08:20:41Z</time>
      </trkpt>
      <trkpt lat="44.43693" lon="6.90224">
        <ele>2210.69</ele>
        <time>2023-02-13T08:21:05Z</time>
      </trkpt>
      <trkpt lat="44.43697" lon="6.90236">
        <ele>2211.65</ele>
        <time>2023-02-13T08:21:18Z</time>
      </trkpt>
      <trkpt lat="44.43701" lon="6.90253">
        <ele>2213.09</ele>
        <time>2023-02-13T08:21:38Z</time>
      </trkpt>
      <trkpt lat="44.43708" lon="6.90274">
        <ele>2215.98</ele>
        <time>2023-02-13T08:22:03Z</time>
      </trkpt>
      <trkpt lat="44.43714" lon="6.90294">
        <ele>2218.86</ele>
        <time>2023-02-13T08:22:27Z</time>
      </trkpt>
      <trkpt lat="44.4372" lon="6.90311">
        <ele>2220.78</ele>
        <time>2023-02-13T08:22:46Z</time>
      </trkpt>
      <trkpt lat="44.43726" lon="6.90326">
        <ele>2222.71</ele>
        <time>2023-02-13T08:23:08Z</time>
      </trkpt>
      <trkpt lat="44.43731" lon="6.90343">
        <ele>2226.07</ele>
        <time>2023-02-13T08:23:32Z</time>
      </trkpt>
      <trkpt lat="44.43744" lon="6.90337">
        <ele>2229.43</ele>
        <time>2023-02-13T08:23:54Z</time>
      </trkpt>
      <trkpt lat="44.43754" lon="6.9034">
        <ele>2233.28</ele>
        <time>2023-02-13T08:24:17Z</time>
      </trkpt>
      <trkpt lat="44.43765" lon="6.90347">
        <ele>2235.68</ele>
        <time>2023-02-13T08:24:40Z</time>
      </trkpt>
      <trkpt lat="44.43781" lon="6.90351">
        <ele>2236.64</ele>
        <time>2023-02-13T08:25:03Z</time>
      </trkpt>
      <trkpt lat="44.4379" lon="6.90353">
        <ele>2238.09</ele>
        <time>2023-02-13T08:25:16Z</time>
      </trkpt>
      <trkpt lat="44.43806" lon="6.90356">
        <ele>2240.97</ele>
        <time>2023-02-13T08:25:43Z</time>
      </trkpt>
      <trkpt lat="44.43825" lon="6.90357">
        <ele>2242.41</ele>
        <time>2023-02-13T08:26:06Z</time>
      </trkpt>
      <trkpt lat="44.43836" lon="6.90362">
        <ele>2243.85</ele>
        <time>2023-02-13T08:26:28Z</time>
      </trkpt>
      <trkpt lat="44.43848" lon="6.90359">
        <ele>2246.74</ele>
        <time>2023-02-13T08:26:53Z</time>
      </trkpt>
      <trkpt lat="44.43863" lon="6.90348">
        <ele>2249.14</ele>
        <time>2023-02-13T08:27:19Z</time>
      </trkpt>
      <trkpt lat="44.43875" lon="6.90342">
        <ele>2251.54</ele>
        <time>2023-02-13T08:27:45Z</time>
      </trkpt>
      <trkpt lat="44.43885" lon="6.90341">
        <ele>2254.43</ele>
        <time>2023-02-13T08:28:07Z</time>
      </trkpt>
      <trkpt lat="44.43898" lon="6.9034">
        <ele>2257.79</ele>
        <time>2023-02-13T08:28:29Z</time>
      </trkpt>
      <trkpt lat="44.43907" lon="6.90346">
        <ele>2260.68</ele>
        <time>2023-02-13T08:28:52Z</time>
      </trkpt>
      <trkpt lat="44.43909" lon="6.90361">
        <ele>2263.56</ele>
        <time>2023-02-13T08:29:18Z</time>
      </trkpt>
      <trkpt lat="44.43907" lon="6.90378">
        <ele>2266.93</ele>
        <time>2023-02-13T08:29:40Z</time>
      </trkpt>
      <trkpt lat="44.43916" lon="6.90388">
        <ele>2269.81</ele>
        <time>2023-02-13T08:30:03Z</time>
      </trkpt>
      <trkpt lat="44.43927" lon="6.9039">
        <ele>2270.29</ele>
        <time>2023-02-13T08:30:25Z</time>
      </trkpt>
      <trkpt lat="44.43934" lon="6.90399">
        <ele>2271.25</ele>
        <time>2023-02-13T08:30:41Z</time>
      </trkpt>
      <trkpt lat="44.43943" lon="6.90412">
        <ele>2271.73</ele>
        <time>2023-02-13T08:31:00Z</time>
      </trkpt>
      <trkpt lat="44.4395" lon="6.9042">
        <ele>2271.73</ele>
        <time>2023-02-13T08:31:12Z</time>
      </trkpt>
      <trkpt lat="44.43958" lon="6.9044">
        <ele>2271.25</ele>
        <time>2023-02-13T08:31:36Z</time>
      </trkpt>
      <trkpt lat="44.43967" lon="6.90451">
        <ele>2273.17</ele>
        <time>2023-02-13T08:31:51Z</time>
      </trkpt>
      <trkpt lat="44.43978" lon="6.90458">
        <ele>2275.1</ele>
        <time>2023-02-13T08:32:06Z</time>
      </trkpt>
      <trkpt lat="44.43988" lon="6.90464">
        <ele>2276.06</ele>
        <time>2023-02-13T08:32:20Z</time>
      </trkpt>
      <trkpt lat="44.43996" lon="6.90471">
        <ele>2276.54</ele>
        <time>2023-02-13T08:32:33Z</time>
      </trkpt>
      <trkpt lat="44.44011" lon="6.90481">
        <ele>2277.5</ele>
        <time>2023-02-13T08:32:52Z</time>
      </trkpt>
      <trkpt lat="44.44027" lon="6.90495">
        <ele>2277.5</ele>
        <time>2023-02-13T08:33:09Z</time>
      </trkpt>
      <trkpt lat="44.44036" lon="6.90508">
        <ele>2276.54</ele>
        <time>2023-02-13T08:33:24Z</time>
      </trkpt>
      <trkpt lat="44.44045" lon="6.90526">
        <ele>2278.94</ele>
        <time>2023-02-13T08:33:42Z</time>
      </trkpt>
      <trkpt lat="44.44048" lon="6.90538">
        <ele>2279.42</ele>
        <time>2023-02-13T08:33:54Z</time>
      </trkpt>
      <trkpt lat="44.44055" lon="6.90554">
        <ele>2282.31</ele>
        <time>2023-02-13T08:34:17Z</time>
      </trkpt>
      <trkpt lat="44.44058" lon="6.90558">
        <ele>2280.87</ele>
        <time>2023-02-13T08:35:57Z</time>
      </trkpt>
      <trkpt lat="44.44059" lon="6.90561">
        <ele>2283.75</ele>
        <time>2023-02-13T08:39:10Z</time>
      </trkpt>
      <trkpt lat="44.44068" lon="6.90571">
        <ele>2284.71</ele>
        <time>2023-02-13T08:39:41Z</time>
      </trkpt>
      <trkpt lat="44.44075" lon="6.90579">
        <ele>2286.15</ele>
        <time>2023-02-13T08:40:12Z</time>
      </trkpt>
      <trkpt lat="44.44087" lon="6.90587">
        <ele>2286.63</ele>
        <time>2023-02-13T08:40:28Z</time>
      </trkpt>
      <trkpt lat="44.44097" lon="6.90596">
        <ele>2287.11</ele>
        <time>2023-02-13T08:40:41Z</time>
      </trkpt>
      <trkpt lat="44.44107" lon="6.90608">
        <ele>2287.59</ele>
        <time>2023-02-13T08:40:56Z</time>
      </trkpt>
      <trkpt lat="44.44115" lon="6.90615">
        <ele>2288.08</ele>
        <time>2023-02-13T08:41:06Z</time>
      </trkpt>
      <trkpt lat="44.44131" lon="6.90627">
        <ele>2290.96</ele>
        <time>2023-02-13T08:41:28Z</time>
      </trkpt>
      <trkpt lat="44.44139" lon="6.90634">
        <ele>2292.4</ele>
        <time>2023-02-13T08:41:41Z</time>
      </trkpt>
      <trkpt lat="44.44148" lon="6.90638">
        <ele>2293.36</ele>
        <time>2023-02-13T08:41:54Z</time>
      </trkpt>
      <trkpt lat="44.44161" lon="6.90647">
        <ele>2295.77</ele>
        <time>2023-02-13T08:42:18Z</time>
      </trkpt>
      <trkpt lat="44.44173" lon="6.90659">
        <ele>2299.13</ele>
        <time>2023-02-13T08:42:45Z</time>
      </trkpt>
      <trkpt lat="44.44177" lon="6.90674">
        <ele>2300.57</ele>
        <time>2023-02-13T08:43:05Z</time>
      </trkpt>
      <trkpt lat="44.44183" lon="6.90687">
        <ele>2303.94</ele>
        <time>2023-02-13T08:43:30Z</time>
      </trkpt>
      <trkpt lat="44.44194" lon="6.90698">
        <ele>2305.86</ele>
        <time>2023-02-13T08:43:58Z</time>
      </trkpt>
      <trkpt lat="44.44207" lon="6.90689">
        <ele>2309.22</ele>
        <time>2023-02-13T08:44:24Z</time>
      </trkpt>
      <trkpt lat="44.4422" lon="6.90682">
        <ele>2312.11</ele>
        <time>2023-02-13T08:44:49Z</time>
      </trkpt>
      <trkpt lat="44.44229" lon="6.90673">
        <ele>2315.47</ele>
        <time>2023-02-13T08:45:15Z</time>
      </trkpt>
      <trkpt lat="44.44243" lon="6.90668">
        <ele>2318.84</ele>
        <time>2023-02-13T08:45:41Z</time>
      </trkpt>
      <trkpt lat="44.44254" lon="6.90667">
        <ele>2321.24</ele>
        <time>2023-02-13T08:46:06Z</time>
      </trkpt>
      <trkpt lat="44.44268" lon="6.90664">
        <ele>2324.12</ele>
        <time>2023-02-13T08:46:33Z</time>
      </trkpt>
      <trkpt lat="44.44269" lon="6.90676">
        <ele>2326.05</ele>
        <time>2023-02-13T08:46:56Z</time>
      </trkpt>
      <trkpt lat="44.44277" lon="6.90686">
        <ele>2328.93</ele>
        <time>2023-02-13T08:47:21Z</time>
      </trkpt>
      <trkpt lat="44.44281" lon="6.90701">
        <ele>2331.33</ele>
        <time>2023-02-13T08:47:48Z</time>
      </trkpt>
      <trkpt lat="44.44285" lon="6.90718">
        <ele>2335.66</ele>
        <time>2023-02-13T08:48:23Z</time>
      </trkpt>
      <trkpt lat="44.44288" lon="6.90729">
        <ele>2339.02</ele>
        <time>2023-02-13T08:49:01Z</time>
      </trkpt>
      <trkpt lat="44.44297" lon="6.90718">
        <ele>2342.87</ele>
        <time>2023-02-13T08:49:26Z</time>
      </trkpt>
      <trkpt lat="44.44308" lon="6.90713">
        <ele>2346.72</ele>
        <time>2023-02-13T08:49:53Z</time>
      </trkpt>
      <trkpt lat="44.44313" lon="6.90727">
        <ele>2349.6</ele>
        <time>2023-02-13T08:50:20Z</time>
      </trkpt>
      <trkpt lat="44.44323" lon="6.9073">
        <ele>2353.44</ele>
        <time>2023-02-13T08:50:44Z</time>
      </trkpt>
      <trkpt lat="44.44333" lon="6.9074">
        <ele>2356.33</ele>
        <time>2023-02-13T08:51:17Z</time>
      </trkpt>
      <trkpt lat="44.44345" lon="6.90741">
        <ele>2360.65</ele>
        <time>2023-02-13T08:51:43Z</time>
      </trkpt>
      <trkpt lat="44.44357" lon="6.90749">
        <ele>2364.02</ele>
        <time>2023-02-13T08:52:16Z</time>
      </trkpt>
      <trkpt lat="44.44367" lon="6.90758">
        <ele>2366.42</ele>
        <time>2023-02-13T08:52:43Z</time>
      </trkpt>
      <trkpt lat="44.44375" lon="6.90768">
        <ele>2369.31</ele>
        <time>2023-02-13T08:53:07Z</time>
      </trkpt>
      <trkpt lat="44.44378" lon="6.90782">
        <ele>2372.19</ele>
        <time>2023-02-13T08:53:30Z</time>
      </trkpt>
      <trkpt lat="44.44388" lon="6.90789">
        <ele>2374.59</ele>
        <time>2023-02-13T08:53:54Z</time>
      </trkpt>
      <trkpt lat="44.44397" lon="6.90793">
        <ele>2377.96</ele>
        <time>2023-02-13T08:54:20Z</time>
      </trkpt>
      <trkpt lat="44.44403" lon="6.90806">
        <ele>2380.84</ele>
        <time>2023-02-13T08:54:46Z</time>
      </trkpt>
      <trkpt lat="44.44413" lon="6.90821">
        <ele>2383.25</ele>
        <time>2023-02-13T08:55:13Z</time>
      </trkpt>
      <trkpt lat="44.44417" lon="6.90834">
        <ele>2385.65</ele>
        <time>2023-02-13T08:55:39Z</time>
      </trkpt>
      <trkpt lat="44.44424" lon="6.90842">
        <ele>2389.01</ele>
        <time>2023-02-13T08:56:05Z</time>
      </trkpt>
      <trkpt lat="44.44432" lon="6.90828">
        <ele>2391.9</ele>
        <time>2023-02-13T08:56:33Z</time>
      </trkpt>
      <trkpt lat="44.44439" lon="6.90816">
        <ele>2394.78</ele>
        <time>2023-02-13T08:56:59Z</time>
      </trkpt>
      <trkpt lat="44.44444" lon="6.90821">
        <ele>2398.15</ele>
        <time>2023-02-13T08:57:33Z</time>
      </trkpt>
      <trkpt lat="44.44449" lon="6.90839">
        <ele>2401.99</ele>
        <time>2023-02-13T08:58:11Z</time>
      </trkpt>
      <trkpt lat="44.44455" lon="6.90826">
        <ele>2406.32</ele>
        <time>2023-02-13T08:58:47Z</time>
      </trkpt>
      <trkpt lat="44.4446" lon="6.90814">
        <ele>2408.24</ele>
        <time>2023-02-13T08:59:10Z</time>
      </trkpt>
      <trkpt lat="44.44466" lon="6.90811">
        <ele>2412.09</ele>
        <time>2023-02-13T08:59:49Z</time>
      </trkpt>
      <trkpt lat="44.44472" lon="6.90825">
        <ele>2415.45</ele>
        <time>2023-02-13T09:00:15Z</time>
      </trkpt>
      <trkpt lat="44.44475" lon="6.90837">
        <ele>2418.81</ele>
        <time>2023-02-13T09:00:41Z</time>
      </trkpt>
      <trkpt lat="44.44484" lon="6.90834">
        <ele>2423.62</ele>
        <time>2023-02-13T09:01:19Z</time>
      </trkpt>
      <trkpt lat="44.44492" lon="6.90849">
        <ele>2426.99</ele>
        <time>2023-02-13T09:01:45Z</time>
      </trkpt>
      <trkpt lat="44.44493" lon="6.90869">
        <ele>2429.87</ele>
        <time>2023-02-13T09:02:10Z</time>
      </trkpt>
      <trkpt lat="44.44504" lon="6.90879">
        <ele>2431.31</ele>
        <time>2023-02-13T09:02:35Z</time>
      </trkpt>
      <trkpt lat="44.44512" lon="6.90882">
        <ele>2431.79</ele>
        <time>2023-02-13T09:03:10Z</time>
      </trkpt>
      <trkpt lat="44.44525" lon="6.90891">
        <ele>2430.35</ele>
        <time>2023-02-13T09:03:59Z</time>
      </trkpt>
      <trkpt lat="44.44539" lon="6.90905">
        <ele>2430.35</ele>
        <time>2023-02-13T09:04:14Z</time>
      </trkpt>
      <trkpt lat="44.44546" lon="6.90924">
        <ele>2433.71</ele>
        <time>2023-02-13T09:04:34Z</time>
      </trkpt>
      <trkpt lat="44.44548" lon="6.9094">
        <ele>2435.64</ele>
        <time>2023-02-13T09:04:48Z</time>
      </trkpt>
      <trkpt lat="44.44552" lon="6.90952">
        <ele>2437.08</ele>
        <time>2023-02-13T09:05:02Z</time>
      </trkpt>
      <trkpt lat="44.44555" lon="6.90967">
        <ele>2438.52</ele>
        <time>2023-02-13T09:05:16Z</time>
      </trkpt>
      <trkpt lat="44.44558" lon="6.90979">
        <ele>2439.96</ele>
        <time>2023-02-13T09:05:29Z</time>
      </trkpt>
      <trkpt lat="44.44561" lon="6.90992">
        <ele>2440.92</ele>
        <time>2023-02-13T09:05:42Z</time>
      </trkpt>
      <trkpt lat="44.44564" lon="6.91005">
        <ele>2441.89</ele>
        <time>2023-02-13T09:05:56Z</time>
      </trkpt>
      <trkpt lat="44.44567" lon="6.91018">
        <ele>2442.37</ele>
        <time>2023-02-13T09:06:09Z</time>
      </trkpt>
      <trkpt lat="44.44569" lon="6.91032">
        <ele>2443.33</ele>
        <time>2023-02-13T09:06:23Z</time>
      </trkpt>
      <trkpt lat="44.44571" lon="6.91051">
        <ele>2446.69</ele>
        <time>2023-02-13T09:06:50Z</time>
      </trkpt>
      <trkpt lat="44.44576" lon="6.91067">
        <ele>2449.1</ele>
        <time>2023-02-13T09:07:12Z</time>
      </trkpt>
      <trkpt lat="44.44581" lon="6.91079">
        <ele>2451.98</ele>
        <time>2023-02-13T09:07:37Z</time>
      </trkpt>
      <trkpt lat="44.44588" lon="6.91097">
        <ele>2454.86</ele>
        <time>2023-02-13T09:08:06Z</time>
      </trkpt>
      <trkpt lat="44.44596" lon="6.91112">
        <ele>2458.23</ele>
        <time>2023-02-13T09:08:45Z</time>
      </trkpt>
      <trkpt lat="44.44606" lon="6.91123">
        <ele>2460.63</ele>
        <time>2023-02-13T09:09:10Z</time>
      </trkpt>
      <trkpt lat="44.44618" lon="6.91132">
        <ele>2463.52</ele>
        <time>2023-02-13T09:09:37Z</time>
      </trkpt>
      <trkpt lat="44.44623" lon="6.91137">
        <ele>2464.96</ele>
        <time>2023-02-13T09:10:26Z</time>
      </trkpt>
      <trkpt lat="44.44633" lon="6.91138">
        <ele>2465.44</ele>
        <time>2023-02-13T09:12:52Z</time>
      </trkpt>
      <trkpt lat="44.44638" lon="6.91136">
        <ele>2466.4</ele>
        <time>2023-02-13T09:14:18Z</time>
      </trkpt>
      <trkpt lat="44.44649" lon="6.91142">
        <ele>2466.4</ele>
        <time>2023-02-13T09:16:17Z</time>
      </trkpt>
      <trkpt lat="44.44666" lon="6.91144">
        <ele>2464.96</ele>
        <time>2023-02-13T09:16:41Z</time>
      </trkpt>
      <trkpt lat="44.44683" lon="6.91152">
        <ele>2467.36</ele>
        <time>2023-02-13T09:17:23Z</time>
      </trkpt>
      <trkpt lat="44.44692" lon="6.91158">
        <ele>2470.24</ele>
        <time>2023-02-13T09:17:47Z</time>
      </trkpt>
      <trkpt lat="44.44704" lon="6.91161">
        <ele>2473.13</ele>
        <time>2023-02-13T09:18:14Z</time>
      </trkpt>
      <trkpt lat="44.44702" lon="6.91145">
        <ele>2475.53</ele>
        <time>2023-02-13T09:18:37Z</time>
      </trkpt>
      <trkpt lat="44.44713" lon="6.91144">
        <ele>2478.42</ele>
        <time>2023-02-13T09:19:08Z</time>
      </trkpt>
      <trkpt lat="44.44722" lon="6.91148">
        <ele>2481.3</ele>
        <time>2023-02-13T09:19:36Z</time>
      </trkpt>
      <trkpt lat="44.44721" lon="6.91131">
        <ele>2484.18</ele>
        <time>2023-02-13T09:20:02Z</time>
      </trkpt>
      <trkpt lat="44.44732" lon="6.91141">
        <ele>2487.07</ele>
        <time>2023-02-13T09:20:28Z</time>
      </trkpt>
      <trkpt lat="44.44737" lon="6.91137">
        <ele>2489.95</ele>
        <time>2023-02-13T09:20:53Z</time>
      </trkpt>
      <trkpt lat="44.44743" lon="6.91141">
        <ele>2493.32</ele>
        <time>2023-02-13T09:21:27Z</time>
      </trkpt>
      <trkpt lat="44.44751" lon="6.91153">
        <ele>2496.2</ele>
        <time>2023-02-13T09:21:50Z</time>
      </trkpt>
      <trkpt lat="44.44761" lon="6.91163">
        <ele>2499.57</ele>
        <time>2023-02-13T09:22:27Z</time>
      </trkpt>
      <trkpt lat="44.44762" lon="6.91158">
        <ele>2501.97</ele>
        <time>2023-02-13T09:23:02Z</time>
      </trkpt>
      <trkpt lat="44.44762" lon="6.91146">
        <ele>2506.77</ele>
        <time>2023-02-13T09:23:42Z</time>
      </trkpt>
      <trkpt lat="44.44772" lon="6.91157">
        <ele>2507.74</ele>
        <time>2023-02-13T09:24:06Z</time>
      </trkpt>
      <trkpt lat="44.44778" lon="6.91167">
        <ele>2511.58</ele>
        <time>2023-02-13T09:24:32Z</time>
      </trkpt>
      <trkpt lat="44.44788" lon="6.91182">
        <ele>2515.43</ele>
        <time>2023-02-13T09:25:10Z</time>
      </trkpt>
      <trkpt lat="44.44794" lon="6.91192">
        <ele>2518.31</ele>
        <time>2023-02-13T09:25:38Z</time>
      </trkpt>
      <trkpt lat="44.44798" lon="6.91186">
        <ele>2521.68</ele>
        <time>2023-02-13T09:26:16Z</time>
      </trkpt>
      <trkpt lat="44.44799" lon="6.91174">
        <ele>2524.56</ele>
        <time>2023-02-13T09:26:45Z</time>
      </trkpt>
      <trkpt lat="44.44809" lon="6.91176">
        <ele>2527.92</ele>
        <time>2023-02-13T09:27:10Z</time>
      </trkpt>
      <trkpt lat="44.44805" lon="6.91162">
        <ele>2529.85</ele>
        <time>2023-02-13T09:27:36Z</time>
      </trkpt>
      <trkpt lat="44.44803" lon="6.91141">
        <ele>2534.17</ele>
        <time>2023-02-13T09:28:14Z</time>
      </trkpt>
      <trkpt lat="44.44806" lon="6.91128">
        <ele>2537.06</ele>
        <time>2023-02-13T09:28:41Z</time>
      </trkpt>
      <trkpt lat="44.44814" lon="6.9112">
        <ele>2539.94</ele>
        <time>2023-02-13T09:29:06Z</time>
      </trkpt>
      <trkpt lat="44.44824" lon="6.91111">
        <ele>2541.86</ele>
        <time>2023-02-13T09:29:32Z</time>
      </trkpt>
      <trkpt lat="44.44832" lon="6.91106">
        <ele>2543.31</ele>
        <time>2023-02-13T09:29:54Z</time>
      </trkpt>
      <trkpt lat="44.44845" lon="6.911">
        <ele>2545.71</ele>
        <time>2023-02-13T09:30:20Z</time>
      </trkpt>
      <trkpt lat="44.44861" lon="6.91087">
        <ele>2546.67</ele>
        <time>2023-02-13T09:30:46Z</time>
      </trkpt>
      <trkpt lat="44.44864" lon="6.91087">
        <ele>2546.19</ele>
        <time>2023-02-13T09:32:50Z</time>
      </trkpt>
      <trkpt lat="44.44873" lon="6.91086">
        <ele>2546.67</ele>
        <time>2023-02-13T09:33:03Z</time>
      </trkpt>
      <trkpt lat="44.44884" lon="6.91084">
        <ele>2548.11</ele>
        <time>2023-02-13T09:33:18Z</time>
      </trkpt>
      <trkpt lat="44.44893" lon="6.9108">
        <ele>2549.07</ele>
        <time>2023-02-13T09:33:33Z</time>
      </trkpt>
      <trkpt lat="44.44907" lon="6.91081">
        <ele>2551.96</ele>
        <time>2023-02-13T09:33:57Z</time>
      </trkpt>
      <trkpt lat="44.44918" lon="6.91083">
        <ele>2555.32</ele>
        <time>2023-02-13T09:34:22Z</time>
      </trkpt>
      <trkpt lat="44.44928" lon="6.9109">
        <ele>2559.65</ele>
        <time>2023-02-13T09:34:54Z</time>
      </trkpt>
      <trkpt lat="44.44939" lon="6.91087">
        <ele>2562.53</ele>
        <time>2023-02-13T09:35:52Z</time>
      </trkpt>
      <trkpt lat="44.44948" lon="6.91084">
        <ele>2566.38</ele>
        <time>2023-02-13T09:36:25Z</time>
      </trkpt>
      <trkpt lat="44.44958" lon="6.91088">
        <ele>2569.74</ele>
        <time>2023-02-13T09:36:54Z</time>
      </trkpt>
      <trkpt lat="44.4497" lon="6.91086">
        <ele>2572.63</ele>
        <time>2023-02-13T09:37:21Z</time>
      </trkpt>
      <trkpt lat="44.4498" lon="6.91082">
        <ele>2576.47</ele>
        <time>2023-02-13T09:37:56Z</time>
      </trkpt>
      <trkpt lat="44.44985" lon="6.91069">
        <ele>2578.87</ele>
        <time>2023-02-13T09:38:19Z</time>
      </trkpt>
      <trkpt lat="44.44995" lon="6.9107">
        <ele>2581.28</ele>
        <time>2023-02-13T09:38:42Z</time>
      </trkpt>
      <trkpt lat="44.45007" lon="6.91066">
        <ele>2585.6</ele>
        <time>2023-02-13T09:39:19Z</time>
      </trkpt>
      <trkpt lat="44.45015" lon="6.91054">
        <ele>2588.49</ele>
        <time>2023-02-13T09:39:52Z</time>
      </trkpt>
      <trkpt lat="44.45027" lon="6.91052">
        <ele>2593.29</ele>
        <time>2023-02-13T09:40:31Z</time>
      </trkpt>
      <trkpt lat="44.45037" lon="6.91059">
        <ele>2597.14</ele>
        <time>2023-02-13T09:41:08Z</time>
      </trkpt>
      <trkpt lat="44.45041" lon="6.91045">
        <ele>2600.5</ele>
        <time>2023-02-13T09:41:39Z</time>
      </trkpt>
      <trkpt lat="44.45047" lon="6.91032">
        <ele>2604.35</ele>
        <time>2023-02-13T09:42:14Z</time>
      </trkpt>
      <trkpt lat="44.45052" lon="6.91019">
        <ele>2607.23</ele>
        <time>2023-02-13T09:42:47Z</time>
      </trkpt>
      <trkpt lat="44.45056" lon="6.91004">
        <ele>2611.08</ele>
        <time>2023-02-13T09:43:22Z</time>
      </trkpt>
      <trkpt lat="44.45059" lon="6.9099">
        <ele>2614.44</ele>
        <time>2023-02-13T09:43:57Z</time>
      </trkpt>
      <trkpt lat="44.45062" lon="6.90977">
        <ele>2616.85</ele>
        <time>2023-02-13T09:44:29Z</time>
      </trkpt>
      <trkpt lat="44.45064" lon="6.90964">
        <ele>2620.21</ele>
        <time>2023-02-13T09:44:51Z</time>
      </trkpt>
      <trkpt lat="44.45068" lon="6.9096">
        <ele>2623.58</ele>
        <time>2023-02-13T09:45:27Z</time>
      </trkpt>
      <trkpt lat="44.45078" lon="6.90972">
        <ele>2627.42</ele>
        <time>2023-02-13T09:46:02Z</time>
      </trkpt>
      <trkpt lat="44.45087" lon="6.90979">
        <ele>2630.79</ele>
        <time>2023-02-13T09:46:38Z</time>
      </trkpt>
      <trkpt lat="44.45096" lon="6.90986">
        <ele>2633.67</ele>
        <time>2023-02-13T09:47:10Z</time>
      </trkpt>
      <trkpt lat="44.45104" lon="6.90985">
        <ele>2637.51</ele>
        <time>2023-02-13T09:47:46Z</time>
      </trkpt>
      <trkpt lat="44.45109" lon="6.90982">
        <ele>2642.32</ele>
        <time>2023-02-13T09:48:33Z</time>
      </trkpt>
      <trkpt lat="44.45116" lon="6.90977">
        <ele>2645.69</ele>
        <time>2023-02-13T09:49:06Z</time>
      </trkpt>
      <trkpt lat="44.45116" lon="6.90962">
        <ele>2648.57</ele>
        <time>2023-02-13T09:49:46Z</time>
      </trkpt>
      <trkpt lat="44.45121" lon="6.90964">
        <ele>2651.45</ele>
        <time>2023-02-13T09:50:19Z</time>
      </trkpt>
      <trkpt lat="44.45128" lon="6.90975">
        <ele>2654.82</ele>
        <time>2023-02-13T09:50:54Z</time>
      </trkpt>
      <trkpt lat="44.45137" lon="6.90986">
        <ele>2657.7</ele>
        <time>2023-02-13T09:51:34Z</time>
      </trkpt>
      <trkpt lat="44.45142" lon="6.90996">
        <ele>2662.51</ele>
        <time>2023-02-13T09:51:59Z</time>
      </trkpt>
      <trkpt lat="44.45149" lon="6.90999">
        <ele>2664.43</ele>
        <time>2023-02-13T09:52:48Z</time>
      </trkpt>
      <trkpt lat="44.45152" lon="6.90993">
        <ele>2666.83</ele>
        <time>2023-02-13T09:53:34Z</time>
      </trkpt>
      <trkpt lat="44.45154" lon="6.90978">
        <ele>2670.68</ele>
        <time>2023-02-13T09:54:07Z</time>
      </trkpt>
      <trkpt lat="44.45155" lon="6.90968">
        <ele>2672.6</ele>
        <time>2023-02-13T09:54:43Z</time>
      </trkpt>
      <trkpt lat="44.45162" lon="6.90986">
        <ele>2675.49</ele>
        <time>2023-02-13T09:55:17Z</time>
      </trkpt>
      <trkpt lat="44.45165" lon="6.9098">
        <ele>2677.89</ele>
        <time>2023-02-13T09:55:54Z</time>
      </trkpt>
      <trkpt lat="44.45167" lon="6.90973">
        <ele>2680.29</ele>
        <time>2023-02-13T09:56:33Z</time>
      </trkpt>
      <trkpt lat="44.45173" lon="6.90986">
        <ele>2684.14</ele>
        <time>2023-02-13T09:57:11Z</time>
      </trkpt>
      <trkpt lat="44.45175" lon="6.9097">
        <ele>2686.54</ele>
        <time>2023-02-13T09:57:48Z</time>
      </trkpt>
      <trkpt lat="44.45177" lon="6.90957">
        <ele>2688.94</ele>
        <time>2023-02-13T09:58:10Z</time>
      </trkpt>
      <trkpt lat="44.45175" lon="6.90943">
        <ele>2692.79</ele>
        <time>2023-02-13T09:58:41Z</time>
      </trkpt>
      <trkpt lat="44.45172" lon="6.90927">
        <ele>2695.19</ele>
        <time>2023-02-13T09:59:14Z</time>
      </trkpt>
      <trkpt lat="44.45172" lon="6.90911">
        <ele>2698.08</ele>
        <time>2023-02-13T09:59:45Z</time>
      </trkpt>
      <trkpt lat="44.45176" lon="6.90918">
        <ele>2700.96</ele>
        <time>2023-02-13T10:00:25Z</time>
      </trkpt>
      <trkpt lat="44.45183" lon="6.90935">
        <ele>2701.92</ele>
        <time>2023-02-13T10:01:09Z</time>
      </trkpt>
      <trkpt lat="44.45189" lon="6.90947">
        <ele>2702.88</ele>
        <time>2023-02-13T10:01:29Z</time>
      </trkpt>
      <trkpt lat="44.45198" lon="6.90967">
        <ele>2704.33</ele>
        <time>2023-02-13T10:02:01Z</time>
      </trkpt>
      <trkpt lat="44.45204" lon="6.90988">
        <ele>2705.29</ele>
        <time>2023-02-13T10:02:25Z</time>
      </trkpt>
      <trkpt lat="44.45208" lon="6.91006">
        <ele>2706.25</ele>
        <time>2023-02-13T10:02:50Z</time>
      </trkpt>
      <trkpt lat="44.45211" lon="6.91022">
        <ele>2708.17</ele>
        <time>2023-02-13T10:03:14Z</time>
      </trkpt>
      <trkpt lat="44.45214" lon="6.91038">
        <ele>2711.06</ele>
        <time>2023-02-13T10:03:46Z</time>
      </trkpt>
      <trkpt lat="44.45219" lon="6.91052">
        <ele>2714.9</ele>
        <time>2023-02-13T10:04:35Z</time>
      </trkpt>
      <trkpt lat="44.4522" lon="6.91068">
        <ele>2718.27</ele>
        <time>2023-02-13T10:05:00Z</time>
      </trkpt>
      <trkpt lat="44.45226" lon="6.91081">
        <ele>2722.11</ele>
        <time>2023-02-13T10:05:30Z</time>
      </trkpt>
      <trkpt lat="44.45228" lon="6.91094">
        <ele>2724.51</ele>
        <time>2023-02-13T10:06:13Z</time>
      </trkpt>
      <trkpt lat="44.45231" lon="6.91108">
        <ele>2727.4</ele>
        <time>2023-02-13T10:06:48Z</time>
      </trkpt>
      <trkpt lat="44.45238" lon="6.91118">
        <ele>2729.32</ele>
        <time>2023-02-13T10:07:13Z</time>
      </trkpt>
      <trkpt lat="44.45241" lon="6.91127">
        <ele>2732.2</ele>
        <time>2023-02-13T10:08:12Z</time>
      </trkpt>
      <trkpt lat="44.45238" lon="6.91119">
        <ele>2730.76</ele>
        <time>2023-02-13T10:10:07Z</time>
      </trkpt>
      <trkpt lat="44.45238" lon="6.91122">
        <ele>2731.24</ele>
        <time>2023-02-13T10:13:27Z</time>
      </trkpt>
      <trkpt lat="44.45239" lon="6.9112">
        <ele>2730.28</ele>
        <time>2023-02-13T10:18:08Z</time>
      </trkpt>
      <trkpt lat="44.45239" lon="6.91126">
        <ele>2730.76</ele>
        <time>2023-02-13T10:22:02Z</time>
      </trkpt>
      <trkpt lat="44.45239" lon="6.91121">
        <ele>2733.65</ele>
        <time>2023-02-13T10:28:25Z</time>
      </trkpt>
      <trkpt lat="44.45237" lon="6.91115">
        <ele>2729.8</ele>
        <time>2023-02-13T10:29:57Z</time>
      </trkpt>
      <trkpt lat="44.45236" lon="6.91118">
        <ele>2731.24</ele>
        <time>2023-02-13T10:33:03Z</time>
      </trkpt>
      <trkpt lat="44.45229" lon="6.91104">
        <ele>2728.36</ele>
        <time>2023-02-13T10:33:46Z</time>
      </trkpt>
      <trkpt lat="44.45221" lon="6.91089">
        <ele>2722.11</ele>
        <time>2023-02-13T10:35:46Z</time>
      </trkpt>
      <trkpt lat="44.45212" lon="6.91095">
        <ele>2716.82</ele>
        <time>2023-02-13T10:36:02Z</time>
      </trkpt>
      <trkpt lat="44.45199" lon="6.9109">
        <ele>2706.73</ele>
        <time>2023-02-13T10:36:17Z</time>
      </trkpt>
      <trkpt lat="44.45185" lon="6.9109">
        <ele>2699.52</ele>
        <time>2023-02-13T10:36:23Z</time>
      </trkpt>
      <trkpt lat="44.45179" lon="6.91073">
        <ele>2693.27</ele>
        <time>2023-02-13T10:36:29Z</time>
      </trkpt>
      <trkpt lat="44.45168" lon="6.91072">
        <ele>2685.58</ele>
        <time>2023-02-13T10:36:33Z</time>
      </trkpt>
      <trkpt lat="44.45166" lon="6.91048">
        <ele>2681.25</ele>
        <time>2023-02-13T10:36:38Z</time>
      </trkpt>
      <trkpt lat="44.45159" lon="6.91059">
        <ele>2674.52</ele>
        <time>2023-02-13T10:36:45Z</time>
      </trkpt>
      <trkpt lat="44.45154" lon="6.91064">
        <ele>2674.04</ele>
        <time>2023-02-13T10:37:40Z</time>
      </trkpt>
      <trkpt lat="44.45146" lon="6.91057">
        <ele>2669.72</ele>
        <time>2023-02-13T10:37:43Z</time>
      </trkpt>
      <trkpt lat="44.4513" lon="6.91051">
        <ele>2659.62</ele>
        <time>2023-02-13T10:37:48Z</time>
      </trkpt>
      <trkpt lat="44.45125" lon="6.91038">
        <ele>2656.74</ele>
        <time>2023-02-13T10:37:51Z</time>
      </trkpt>
      <trkpt lat="44.45109" lon="6.91036">
        <ele>2646.65</ele>
        <time>2023-02-13T10:37:55Z</time>
      </trkpt>
      <trkpt lat="44.45106" lon="6.91021">
        <ele>2642.8</ele>
        <time>2023-02-13T10:37:57Z</time>
      </trkpt>
      <trkpt lat="44.45103" lon="6.91007">
        <ele>2640.88</ele>
        <time>2023-02-13T10:37:59Z</time>
      </trkpt>
      <trkpt lat="44.45088" lon="6.91003">
        <ele>2635.11</ele>
        <time>2023-02-13T10:38:04Z</time>
      </trkpt>
      <trkpt lat="44.45077" lon="6.91008">
        <ele>2630.3</ele>
        <time>2023-02-13T10:38:06Z</time>
      </trkpt>
      <trkpt lat="44.45071" lon="6.90997">
        <ele>2626.94</ele>
        <time>2023-02-13T10:38:08Z</time>
      </trkpt>
      <trkpt lat="44.45057" lon="6.90978">
        <ele>2623.09</ele>
        <time>2023-02-13T10:38:11Z</time>
      </trkpt>
      <trkpt lat="44.45046" lon="6.90962">
        <ele>2618.77</ele>
        <time>2023-02-13T10:38:13Z</time>
      </trkpt>
      <trkpt lat="44.45026" lon="6.90948">
        <ele>2615.88</ele>
        <time>2023-02-13T10:38:16Z</time>
      </trkpt>
      <trkpt lat="44.45008" lon="6.90949">
        <ele>2613</ele>
        <time>2023-02-13T10:38:18Z</time>
      </trkpt>
      <trkpt lat="44.44991" lon="6.90954">
        <ele>2610.12</ele>
        <time>2023-02-13T10:38:20Z</time>
      </trkpt>
      <trkpt lat="44.44975" lon="6.90957">
        <ele>2605.79</ele>
        <time>2023-02-13T10:38:28Z</time>
      </trkpt>
      <trkpt lat="44.44977" lon="6.90966">
        <ele>2602.91</ele>
        <time>2023-02-13T10:39:28Z</time>
      </trkpt>
      <trkpt lat="44.44986" lon="6.90971">
        <ele>2600.5</ele>
        <time>2023-02-13T10:39:31Z</time>
      </trkpt>
      <trkpt lat="44.44985" lon="6.90985">
        <ele>2597.14</ele>
        <time>2023-02-13T10:39:34Z</time>
      </trkpt>
      <trkpt lat="44.44969" lon="6.90991">
        <ele>2592.81</ele>
        <time>2023-02-13T10:39:37Z</time>
      </trkpt>
      <trkpt lat="44.44955" lon="6.90991">
        <ele>2589.45</ele>
        <time>2023-02-13T10:39:40Z</time>
      </trkpt>
      <trkpt lat="44.4494" lon="6.90993">
        <ele>2586.08</ele>
        <time>2023-02-13T10:39:44Z</time>
      </trkpt>
      <trkpt lat="44.44925" lon="6.90993">
        <ele>2582.72</ele>
        <time>2023-02-13T10:39:49Z</time>
      </trkpt>
      <trkpt lat="44.44896" lon="6.90988">
        <ele>2578.87</ele>
        <time>2023-02-13T10:40:10Z</time>
      </trkpt>
      <trkpt lat="44.44885" lon="6.90985">
        <ele>2575.03</ele>
        <time>2023-02-13T10:40:12Z</time>
      </trkpt>
      <trkpt lat="44.44861" lon="6.90979">
        <ele>2571.18</ele>
        <time>2023-02-13T10:40:16Z</time>
      </trkpt>
      <trkpt lat="44.44839" lon="6.90967">
        <ele>2568.78</ele>
        <time>2023-02-13T10:40:21Z</time>
      </trkpt>
      <trkpt lat="44.44828" lon="6.90962">
        <ele>2566.38</ele>
        <time>2023-02-13T10:40:23Z</time>
      </trkpt>
      <trkpt lat="44.44806" lon="6.90955">
        <ele>2561.57</ele>
        <time>2023-02-13T10:40:26Z</time>
      </trkpt>
      <trkpt lat="44.44778" lon="6.90949">
        <ele>2556.76</ele>
        <time>2023-02-13T10:40:30Z</time>
      </trkpt>
      <trkpt lat="44.44761" lon="6.90948">
        <ele>2552.92</ele>
        <time>2023-02-13T10:40:34Z</time>
      </trkpt>
      <trkpt lat="44.44742" lon="6.90947">
        <ele>2548.59</ele>
        <time>2023-02-13T10:40:40Z</time>
      </trkpt>
      <trkpt lat="44.44728" lon="6.90942">
        <ele>2543.79</ele>
        <time>2023-02-13T10:41:50Z</time>
      </trkpt>
      <trkpt lat="44.44721" lon="6.90957">
        <ele>2535.13</ele>
        <time>2023-02-13T10:41:55Z</time>
      </trkpt>
      <trkpt lat="44.44706" lon="6.90953">
        <ele>2527.44</ele>
        <time>2023-02-13T10:42:01Z</time>
      </trkpt>
      <trkpt lat="44.44697" lon="6.90959">
        <ele>2520.23</ele>
        <time>2023-02-13T10:42:04Z</time>
      </trkpt>
      <trkpt lat="44.4469" lon="6.90949">
        <ele>2516.39</ele>
        <time>2023-02-13T10:42:06Z</time>
      </trkpt>
      <trkpt lat="44.44681" lon="6.90932">
        <ele>2511.1</ele>
        <time>2023-02-13T10:42:10Z</time>
      </trkpt>
      <trkpt lat="44.44674" lon="6.90941">
        <ele>2507.26</ele>
        <time>2023-02-13T10:42:13Z</time>
      </trkpt>
      <trkpt lat="44.44669" lon="6.90952">
        <ele>2503.89</ele>
        <time>2023-02-13T10:42:15Z</time>
      </trkpt>
      <trkpt lat="44.44658" lon="6.90946">
        <ele>2498.12</ele>
        <time>2023-02-13T10:42:17Z</time>
      </trkpt>
      <trkpt lat="44.44645" lon="6.90925">
        <ele>2489.95</ele>
        <time>2023-02-13T10:42:20Z</time>
      </trkpt>
      <trkpt lat="44.44634" lon="6.90897">
        <ele>2485.15</ele>
        <time>2023-02-13T10:42:24Z</time>
      </trkpt>
      <trkpt lat="44.44627" lon="6.90881">
        <ele>2482.74</ele>
        <time>2023-02-13T10:42:28Z</time>
      </trkpt>
      <trkpt lat="44.44615" lon="6.90883">
        <ele>2479.38</ele>
        <time>2023-02-13T10:42:31Z</time>
      </trkpt>
      <trkpt lat="44.44612" lon="6.9091">
        <ele>2476.01</ele>
        <time>2023-02-13T10:42:34Z</time>
      </trkpt>
      <trkpt lat="44.446" lon="6.90904">
        <ele>2471.21</ele>
        <time>2023-02-13T10:42:43Z</time>
      </trkpt>
      <trkpt lat="44.44591" lon="6.90903">
        <ele>2470.73</ele>
        <time>2023-02-13T10:42:57Z</time>
      </trkpt>
      <trkpt lat="44.44599" lon="6.9089">
        <ele>2470.24</ele>
        <time>2023-02-13T10:44:14Z</time>
      </trkpt>
      <trkpt lat="44.44584" lon="6.90881">
        <ele>2462.55</ele>
        <time>2023-02-13T10:44:27Z</time>
      </trkpt>
      <trkpt lat="44.44582" lon="6.90858">
        <ele>2455.82</ele>
        <time>2023-02-13T10:44:31Z</time>
      </trkpt>
      <trkpt lat="44.44587" lon="6.90832">
        <ele>2449.58</ele>
        <time>2023-02-13T10:44:34Z</time>
      </trkpt>
      <trkpt lat="44.44599" lon="6.90789">
        <ele>2445.73</ele>
        <time>2023-02-13T10:44:38Z</time>
      </trkpt>
      <trkpt lat="44.44614" lon="6.90722">
        <ele>2442.37</ele>
        <time>2023-02-13T10:44:45Z</time>
      </trkpt>
      <trkpt lat="44.44621" lon="6.907">
        <ele>2440.92</ele>
        <time>2023-02-13T10:44:49Z</time>
      </trkpt>
      <trkpt lat="44.44631" lon="6.9068">
        <ele>2439.48</ele>
        <time>2023-02-13T10:44:52Z</time>
      </trkpt>
      <trkpt lat="44.4465" lon="6.90651">
        <ele>2437.56</ele>
        <time>2023-02-13T10:44:58Z</time>
      </trkpt>
      <trkpt lat="44.4466" lon="6.90635">
        <ele>2435.64</ele>
        <time>2023-02-13T10:45:01Z</time>
      </trkpt>
      <trkpt lat="44.44676" lon="6.90584">
        <ele>2432.27</ele>
        <time>2023-02-13T10:45:10Z</time>
      </trkpt>
      <trkpt lat="44.44671" lon="6.90548">
        <ele>2432.27</ele>
        <time>2023-02-13T10:45:23Z</time>
      </trkpt>
      <trkpt lat="44.44672" lon="6.90537">
        <ele>2431.79</ele>
        <time>2023-02-13T10:46:31Z</time>
      </trkpt>
      <trkpt lat="44.44673" lon="6.9054">
        <ele>2434.2</ele>
        <time>2023-02-13T10:51:26Z</time>
      </trkpt>
      <trkpt lat="44.4467" lon="6.90539">
        <ele>2428.43</ele>
        <time>2023-02-13T10:53:27Z</time>
      </trkpt>
      <trkpt lat="44.44672" lon="6.90539">
        <ele>2433.71</ele>
        <time>2023-02-13T10:55:27Z</time>
      </trkpt>
      <trkpt lat="44.44677" lon="6.90532">
        <ele>2434.68</ele>
        <time>2023-02-13T10:57:09Z</time>
      </trkpt>
      <trkpt lat="44.44682" lon="6.90508">
        <ele>2432.27</ele>
        <time>2023-02-13T10:57:39Z</time>
      </trkpt>
      <trkpt lat="44.44682" lon="6.90505">
        <ele>2432.27</ele>
        <time>2023-02-13T11:00:54Z</time>
      </trkpt>
      <trkpt lat="44.44686" lon="6.90487">
        <ele>2433.71</ele>
        <time>2023-02-13T11:01:40Z</time>
      </trkpt>
      <trkpt lat="44.44688" lon="6.90473">
        <ele>2434.2</ele>
        <time>2023-02-13T11:01:53Z</time>
      </trkpt>
      <trkpt lat="44.44689" lon="6.90457">
        <ele>2435.64</ele>
        <time>2023-02-13T11:02:20Z</time>
      </trkpt>
      <trkpt lat="44.44693" lon="6.9044">
        <ele>2438.52</ele>
        <time>2023-02-13T11:02:52Z</time>
      </trkpt>
      <trkpt lat="44.44697" lon="6.9042">
        <ele>2441.89</ele>
        <time>2023-02-13T11:03:22Z</time>
      </trkpt>
      <trkpt lat="44.44697" lon="6.90398">
        <ele>2443.81</ele>
        <time>2023-02-13T11:03:49Z</time>
      </trkpt>
      <trkpt lat="44.44687" lon="6.90373">
        <ele>2439.96</ele>
        <time>2023-02-13T11:05:11Z</time>
      </trkpt>
      <trkpt lat="44.44688" lon="6.90361">
        <ele>2438.52</ele>
        <time>2023-02-13T11:05:18Z</time>
      </trkpt>
      <trkpt lat="44.44698" lon="6.90329">
        <ele>2436.12</ele>
        <time>2023-02-13T11:05:38Z</time>
      </trkpt>
      <trkpt lat="44.44703" lon="6.90313">
        <ele>2435.16</ele>
        <time>2023-02-13T11:05:51Z</time>
      </trkpt>
      <trkpt lat="44.44707" lon="6.90297">
        <ele>2436.6</ele>
        <time>2023-02-13T11:06:09Z</time>
      </trkpt>
      <trkpt lat="44.4471" lon="6.90285">
        <ele>2437.08</ele>
        <time>2023-02-13T11:06:22Z</time>
      </trkpt>
      <trkpt lat="44.44714" lon="6.90272">
        <ele>2438.52</ele>
        <time>2023-02-13T11:06:35Z</time>
      </trkpt>
      <trkpt lat="44.44717" lon="6.90259">
        <ele>2439.96</ele>
        <time>2023-02-13T11:06:48Z</time>
      </trkpt>
      <trkpt lat="44.44721" lon="6.90246">
        <ele>2440.92</ele>
        <time>2023-02-13T11:07:04Z</time>
      </trkpt>
      <trkpt lat="44.44725" lon="6.90235">
        <ele>2442.85</ele>
        <time>2023-02-13T11:07:17Z</time>
      </trkpt>
      <trkpt lat="44.44737" lon="6.90217">
        <ele>2444.29</ele>
        <time>2023-02-13T11:07:39Z</time>
      </trkpt>
      <trkpt lat="44.44745" lon="6.90207">
        <ele>2445.73</ele>
        <time>2023-02-13T11:07:53Z</time>
      </trkpt>
      <trkpt lat="44.44752" lon="6.90197">
        <ele>2446.69</ele>
        <time>2023-02-13T11:08:07Z</time>
      </trkpt>
      <trkpt lat="44.44763" lon="6.90183">
        <ele>2450.54</ele>
        <time>2023-02-13T11:08:31Z</time>
      </trkpt>
      <trkpt lat="44.44769" lon="6.90173">
        <ele>2451.5</ele>
        <time>2023-02-13T11:08:45Z</time>
      </trkpt>
      <trkpt lat="44.44779" lon="6.90153">
        <ele>2454.38</ele>
        <time>2023-02-13T11:09:11Z</time>
      </trkpt>
      <trkpt lat="44.44786" lon="6.9014">
        <ele>2454.86</ele>
        <time>2023-02-13T11:09:25Z</time>
      </trkpt>
      <trkpt lat="44.44796" lon="6.90131">
        <ele>2456.31</ele>
        <time>2023-02-13T11:09:44Z</time>
      </trkpt>
      <trkpt lat="44.44809" lon="6.9012">
        <ele>2459.19</ele>
        <time>2023-02-13T11:10:09Z</time>
      </trkpt>
      <trkpt lat="44.44821" lon="6.90112">
        <ele>2461.59</ele>
        <time>2023-02-13T11:10:31Z</time>
      </trkpt>
      <trkpt lat="44.44831" lon="6.90099">
        <ele>2464</ele>
        <time>2023-02-13T11:10:56Z</time>
      </trkpt>
      <trkpt lat="44.44834" lon="6.90085">
        <ele>2466.4</ele>
        <time>2023-02-13T11:11:18Z</time>
      </trkpt>
      <trkpt lat="44.44836" lon="6.90071">
        <ele>2466.88</ele>
        <time>2023-02-13T11:11:33Z</time>
      </trkpt>
      <trkpt lat="44.44839" lon="6.90053">
        <ele>2469.28</ele>
        <time>2023-02-13T11:11:58Z</time>
      </trkpt>
      <trkpt lat="44.44843" lon="6.90034">
        <ele>2471.21</ele>
        <time>2023-02-13T11:12:26Z</time>
      </trkpt>
      <trkpt lat="44.4485" lon="6.9002">
        <ele>2474.09</ele>
        <time>2023-02-13T11:12:50Z</time>
      </trkpt>
      <trkpt lat="44.44861" lon="6.9">
        <ele>2476.97</ele>
        <time>2023-02-13T11:13:33Z</time>
      </trkpt>
      <trkpt lat="44.44869" lon="6.89979">
        <ele>2479.38</ele>
        <time>2023-02-13T11:14:00Z</time>
      </trkpt>
      <trkpt lat="44.44878" lon="6.89961">
        <ele>2481.3</ele>
        <time>2023-02-13T11:14:25Z</time>
      </trkpt>
      <trkpt lat="44.44887" lon="6.89943">
        <ele>2483.7</ele>
        <time>2023-02-13T11:14:51Z</time>
      </trkpt>
      <trkpt lat="44.44893" lon="6.89927">
        <ele>2486.11</ele>
        <time>2023-02-13T11:15:16Z</time>
      </trkpt>
      <trkpt lat="44.44897" lon="6.89909">
        <ele>2488.99</ele>
        <time>2023-02-13T11:15:41Z</time>
      </trkpt>
      <trkpt lat="44.449" lon="6.89893">
        <ele>2490.43</ele>
        <time>2023-02-13T11:16:03Z</time>
      </trkpt>
      <trkpt lat="44.44906" lon="6.89874">
        <ele>2492.84</ele>
        <time>2023-02-13T11:16:29Z</time>
      </trkpt>
      <trkpt lat="44.44909" lon="6.89855">
        <ele>2495.24</ele>
        <time>2023-02-13T11:16:56Z</time>
      </trkpt>
      <trkpt lat="44.4491" lon="6.89854">
        <ele>2494.76</ele>
        <time>2023-02-13T11:19:08Z</time>
      </trkpt>
      <trkpt lat="44.44911" lon="6.89838">
        <ele>2496.2</ele>
        <time>2023-02-13T11:20:18Z</time>
      </trkpt>
      <trkpt lat="44.44907" lon="6.89815">
        <ele>2499.08</ele>
        <time>2023-02-13T11:20:45Z</time>
      </trkpt>
      <trkpt lat="44.44904" lon="6.89795">
        <ele>2501.49</ele>
        <time>2023-02-13T11:21:11Z</time>
      </trkpt>
      <trkpt lat="44.44904" lon="6.89774">
        <ele>2503.89</ele>
        <time>2023-02-13T11:21:38Z</time>
      </trkpt>
      <trkpt lat="44.44905" lon="6.8976">
        <ele>2506.77</ele>
        <time>2023-02-13T11:22:04Z</time>
      </trkpt>
      <trkpt lat="44.44906" lon="6.89747">
        <ele>2510.14</ele>
        <time>2023-02-13T11:22:31Z</time>
      </trkpt>
      <trkpt lat="44.44902" lon="6.8973">
        <ele>2513.98</ele>
        <time>2023-02-13T11:23:07Z</time>
      </trkpt>
      <trkpt lat="44.44901" lon="6.89714">
        <ele>2517.83</ele>
        <time>2023-02-13T11:23:43Z</time>
      </trkpt>
      <trkpt lat="44.44904" lon="6.89701">
        <ele>2522.16</ele>
        <time>2023-02-13T11:24:18Z</time>
      </trkpt>
      <trkpt lat="44.44907" lon="6.89689">
        <ele>2525.52</ele>
        <time>2023-02-13T11:24:50Z</time>
      </trkpt>
      <trkpt lat="44.4491" lon="6.89672">
        <ele>2529.37</ele>
        <time>2023-02-13T11:25:25Z</time>
      </trkpt>
      <trkpt lat="44.44909" lon="6.89655">
        <ele>2533.21</ele>
        <time>2023-02-13T11:26:03Z</time>
      </trkpt>
      <trkpt lat="44.44897" lon="6.89657">
        <ele>2537.54</ele>
        <time>2023-02-13T11:27:02Z</time>
      </trkpt>
      <trkpt lat="44.44888" lon="6.89657">
        <ele>2541.38</ele>
        <time>2023-02-13T11:27:28Z</time>
      </trkpt>
      <trkpt lat="44.44886" lon="6.89642">
        <ele>2544.75</ele>
        <time>2023-02-13T11:28:03Z</time>
      </trkpt>
      <trkpt lat="44.44888" lon="6.89629">
        <ele>2548.11</ele>
        <time>2023-02-13T11:28:36Z</time>
      </trkpt>
      <trkpt lat="44.4488" lon="6.89631">
        <ele>2551.96</ele>
        <time>2023-02-13T11:29:10Z</time>
      </trkpt>
      <trkpt lat="44.4487" lon="6.89636">
        <ele>2555.32</ele>
        <time>2023-02-13T11:29:55Z</time>
      </trkpt>
      <trkpt lat="44.44872" lon="6.8962">
        <ele>2559.17</ele>
        <time>2023-02-13T11:30:35Z</time>
      </trkpt>
      <trkpt lat="44.44876" lon="6.89608">
        <ele>2562.53</ele>
        <time>2023-02-13T11:31:10Z</time>
      </trkpt>
      <trkpt lat="44.44867" lon="6.89611">
        <ele>2565.42</ele>
        <time>2023-02-13T11:31:39Z</time>
      </trkpt>
      <trkpt lat="44.44861" lon="6.89604">
        <ele>2568.78</ele>
        <time>2023-02-13T11:32:25Z</time>
      </trkpt>
      <trkpt lat="44.44862" lon="6.89597">
        <ele>2572.63</ele>
        <time>2023-02-13T11:33:11Z</time>
      </trkpt>
      <trkpt lat="44.44852" lon="6.89598">
        <ele>2576.47</ele>
        <time>2023-02-13T11:33:36Z</time>
      </trkpt>
      <trkpt lat="44.4485" lon="6.89586">
        <ele>2579.35</ele>
        <time>2023-02-13T11:34:09Z</time>
      </trkpt>
      <trkpt lat="44.4485" lon="6.89574">
        <ele>2582.24</ele>
        <time>2023-02-13T11:35:29Z</time>
      </trkpt>
      <trkpt lat="44.4485" lon="6.89568">
        <ele>2584.64</ele>
        <time>2023-02-13T11:37:00Z</time>
      </trkpt>
      <trkpt lat="44.44845" lon="6.89553">
        <ele>2586.08</ele>
        <time>2023-02-13T11:37:26Z</time>
      </trkpt>
      <trkpt lat="44.44844" lon="6.89537">
        <ele>2589.45</ele>
        <time>2023-02-13T11:37:51Z</time>
      </trkpt>
      <trkpt lat="44.44845" lon="6.8952">
        <ele>2593.29</ele>
        <time>2023-02-13T11:38:25Z</time>
      </trkpt>
      <trkpt lat="44.44835" lon="6.8952">
        <ele>2595.7</ele>
        <time>2023-02-13T11:38:50Z</time>
      </trkpt>
      <trkpt lat="44.44825" lon="6.89514">
        <ele>2598.58</ele>
        <time>2023-02-13T11:39:15Z</time>
      </trkpt>
      <trkpt lat="44.44829" lon="6.89503">
        <ele>2602.91</ele>
        <time>2023-02-13T11:39:45Z</time>
      </trkpt>
      <trkpt lat="44.44826" lon="6.8949">
        <ele>2606.75</ele>
        <time>2023-02-13T11:40:18Z</time>
      </trkpt>
      <trkpt lat="44.44819" lon="6.89476">
        <ele>2611.08</ele>
        <time>2023-02-13T11:40:54Z</time>
      </trkpt>
      <trkpt lat="44.44811" lon="6.89466">
        <ele>2614.44</ele>
        <time>2023-02-13T11:41:21Z</time>
      </trkpt>
      <trkpt lat="44.448" lon="6.89458">
        <ele>2616.37</ele>
        <time>2023-02-13T11:41:46Z</time>
      </trkpt>
      <trkpt lat="44.4479" lon="6.89452">
        <ele>2620.69</ele>
        <time>2023-02-13T11:42:19Z</time>
      </trkpt>
      <trkpt lat="44.44794" lon="6.89434">
        <ele>2625.5</ele>
        <time>2023-02-13T11:42:58Z</time>
      </trkpt>
      <trkpt lat="44.44803" lon="6.89422">
        <ele>2627.42</ele>
        <time>2023-02-13T11:43:20Z</time>
      </trkpt>
      <trkpt lat="44.44812" lon="6.89412">
        <ele>2631.27</ele>
        <time>2023-02-13T11:43:53Z</time>
      </trkpt>
      <trkpt lat="44.4482" lon="6.89401">
        <ele>2634.63</ele>
        <time>2023-02-13T11:44:23Z</time>
      </trkpt>
      <trkpt lat="44.44813" lon="6.89394">
        <ele>2637.03</ele>
        <time>2023-02-13T11:44:47Z</time>
      </trkpt>
      <trkpt lat="44.44804" lon="6.89385">
        <ele>2640.4</ele>
        <time>2023-02-13T11:45:11Z</time>
      </trkpt>
      <trkpt lat="44.44807" lon="6.89377">
        <ele>2642.8</ele>
        <time>2023-02-13T11:46:00Z</time>
      </trkpt>
      <trkpt lat="44.44804" lon="6.8937">
        <ele>2647.13</ele>
        <time>2023-02-13T11:46:38Z</time>
      </trkpt>
      <trkpt lat="44.44796" lon="6.89364">
        <ele>2650.49</ele>
        <time>2023-02-13T11:47:15Z</time>
      </trkpt>
      <trkpt lat="44.44803" lon="6.89357">
        <ele>2653.38</ele>
        <time>2023-02-13T11:47:50Z</time>
      </trkpt>
      <trkpt lat="44.44812" lon="6.89351">
        <ele>2657.22</ele>
        <time>2023-02-13T11:48:48Z</time>
      </trkpt>
      <trkpt lat="44.44821" lon="6.89347">
        <ele>2659.14</ele>
        <time>2023-02-13T11:49:21Z</time>
      </trkpt>
      <trkpt lat="44.44831" lon="6.89341">
        <ele>2661.07</ele>
        <time>2023-02-13T11:49:48Z</time>
      </trkpt>
      <trkpt lat="44.44841" lon="6.89337">
        <ele>2663.47</ele>
        <time>2023-02-13T11:50:25Z</time>
      </trkpt>
      <trkpt lat="44.44836" lon="6.89332">
        <ele>2667.31</ele>
        <time>2023-02-13T11:51:04Z</time>
      </trkpt>
      <trkpt lat="44.44827" lon="6.89328">
        <ele>2670.2</ele>
        <time>2023-02-13T11:51:27Z</time>
      </trkpt>
      <trkpt lat="44.44813" lon="6.89322">
        <ele>2675.01</ele>
        <time>2023-02-13T11:52:05Z</time>
      </trkpt>
      <trkpt lat="44.44799" lon="6.89316">
        <ele>2677.41</ele>
        <time>2023-02-13T11:52:33Z</time>
      </trkpt>
      <trkpt lat="44.44787" lon="6.89314">
        <ele>2679.81</ele>
        <time>2023-02-13T11:53:05Z</time>
      </trkpt>
      <trkpt lat="44.44777" lon="6.89312">
        <ele>2683.18</ele>
        <time>2023-02-13T11:53:39Z</time>
      </trkpt>
      <trkpt lat="44.44763" lon="6.89309">
        <ele>2686.06</ele>
        <time>2023-02-13T11:54:11Z</time>
      </trkpt>
      <trkpt lat="44.44755" lon="6.89307">
        <ele>2687.5</ele>
        <time>2023-02-13T11:55:41Z</time>
      </trkpt>
      <trkpt lat="44.44753" lon="6.89301">
        <ele>2687.02</ele>
        <time>2023-02-13T11:57:58Z</time>
      </trkpt>
      <trkpt lat="44.44742" lon="6.89307">
        <ele>2686.06</ele>
        <time>2023-02-13T11:58:47Z</time>
      </trkpt>
      <trkpt lat="44.44728" lon="6.89312">
        <ele>2686.06</ele>
        <time>2023-02-13T11:59:09Z</time>
      </trkpt>
      <trkpt lat="44.44715" lon="6.89318">
        <ele>2689.43</ele>
        <time>2023-02-13T11:59:38Z</time>
      </trkpt>
      <trkpt lat="44.44706" lon="6.8933">
        <ele>2692.79</ele>
        <time>2023-02-13T12:00:09Z</time>
      </trkpt>
      <trkpt lat="44.44694" lon="6.89328">
        <ele>2695.19</ele>
        <time>2023-02-13T12:00:35Z</time>
      </trkpt>
      <trkpt lat="44.44686" lon="6.89337">
        <ele>2698.08</ele>
        <time>2023-02-13T12:01:05Z</time>
      </trkpt>
      <trkpt lat="44.44679" lon="6.89347">
        <ele>2700.48</ele>
        <time>2023-02-13T12:01:39Z</time>
      </trkpt>
      <trkpt lat="44.44673" lon="6.89359">
        <ele>2705.29</ele>
        <time>2023-02-13T12:02:15Z</time>
      </trkpt>
      <trkpt lat="44.44669" lon="6.89372">
        <ele>2708.17</ele>
        <time>2023-02-13T12:02:50Z</time>
      </trkpt>
      <trkpt lat="44.4466" lon="6.89379">
        <ele>2712.02</ele>
        <time>2023-02-13T12:03:19Z</time>
      </trkpt>
      <trkpt lat="44.44649" lon="6.89385">
        <ele>2714.42</ele>
        <time>2023-02-13T12:03:47Z</time>
      </trkpt>
      <trkpt lat="44.44638" lon="6.89394">
        <ele>2717.3</ele>
        <time>2023-02-13T12:04:51Z</time>
      </trkpt>
      <trkpt lat="44.44631" lon="6.89403">
        <ele>2719.23</ele>
        <time>2023-02-13T12:05:19Z</time>
      </trkpt>
      <trkpt lat="44.44624" lon="6.89417">
        <ele>2723.07</ele>
        <time>2023-02-13T12:05:59Z</time>
      </trkpt>
      <trkpt lat="44.44616" lon="6.89431">
        <ele>2724.99</ele>
        <time>2023-02-13T12:06:28Z</time>
      </trkpt>
      <trkpt lat="44.4461" lon="6.89444">
        <ele>2728.36</ele>
        <time>2023-02-13T12:06:50Z</time>
      </trkpt>
      <trkpt lat="44.44615" lon="6.89451">
        <ele>2731.24</ele>
        <time>2023-02-13T12:07:24Z</time>
      </trkpt>
      <trkpt lat="44.44624" lon="6.8946">
        <ele>2736.05</ele>
        <time>2023-02-13T12:08:00Z</time>
      </trkpt>
      <trkpt lat="44.44618" lon="6.89474">
        <ele>2738.45</ele>
        <time>2023-02-13T12:08:27Z</time>
      </trkpt>
      <trkpt lat="44.44618" lon="6.89485">
        <ele>2742.78</ele>
        <time>2023-02-13T12:08:59Z</time>
      </trkpt>
      <trkpt lat="44.44615" lon="6.89495">
        <ele>2745.66</ele>
        <time>2023-02-13T12:09:28Z</time>
      </trkpt>
      <trkpt lat="44.44608" lon="6.89506">
        <ele>2750.95</ele>
        <time>2023-02-13T12:10:03Z</time>
      </trkpt>
      <trkpt lat="44.44603" lon="6.89521">
        <ele>2754.8</ele>
        <time>2023-02-13T12:10:38Z</time>
      </trkpt>
      <trkpt lat="44.44601" lon="6.89533">
        <ele>2759.12</ele>
        <time>2023-02-13T12:11:12Z</time>
      </trkpt>
      <trkpt lat="44.44596" lon="6.89545">
        <ele>2762</ele>
        <time>2023-02-13T12:11:40Z</time>
      </trkpt>
      <trkpt lat="44.44585" lon="6.89557">
        <ele>2766.33</ele>
        <time>2023-02-13T12:12:17Z</time>
      </trkpt>
      <trkpt lat="44.4458" lon="6.89568">
        <ele>2768.73</ele>
        <time>2023-02-13T12:12:43Z</time>
      </trkpt>
      <trkpt lat="44.44579" lon="6.89569">
        <ele>2767.29</ele>
        <time>2023-02-13T12:17:29Z</time>
      </trkpt>
      <trkpt lat="44.44581" lon="6.89569">
        <ele>2766.81</ele>
        <time>2023-02-13T12:25:12Z</time>
      </trkpt>
      <trkpt lat="44.4458" lon="6.89569">
        <ele>2766.81</ele>
        <time>2023-02-13T12:36:37Z</time>
      </trkpt>
      <trkpt lat="44.4458" lon="6.8957">
        <ele>2765.85</ele>
        <time>2023-02-13T12:42:39Z</time>
      </trkpt>
      <trkpt lat="44.44579" lon="6.8957">
        <ele>2766.33</ele>
        <time>2023-02-13T12:45:39Z</time>
      </trkpt>
      <trkpt lat="44.44578" lon="6.89568">
        <ele>2768.25</ele>
        <time>2023-02-13T12:51:20Z</time>
      </trkpt>
      <trkpt lat="44.44584" lon="6.8956">
        <ele>2765.37</ele>
        <time>2023-02-13T12:54:51Z</time>
      </trkpt>
      <trkpt lat="44.44591" lon="6.89545">
        <ele>2762.49</ele>
        <time>2023-02-13T12:55:05Z</time>
      </trkpt>
      <trkpt lat="44.446" lon="6.89514">
        <ele>2750.47</ele>
        <time>2023-02-13T12:55:28Z</time>
      </trkpt>
      <trkpt lat="44.44613" lon="6.89498">
        <ele>2745.18</ele>
        <time>2023-02-13T12:55:38Z</time>
      </trkpt>
      <trkpt lat="44.44616" lon="6.89475">
        <ele>2737.97</ele>
        <time>2023-02-13T12:56:05Z</time>
      </trkpt>
      <trkpt lat="44.44627" lon="6.89418">
        <ele>2721.15</ele>
        <time>2023-02-13T12:56:31Z</time>
      </trkpt>
      <trkpt lat="44.44622" lon="6.894">
        <ele>2714.42</ele>
        <time>2023-02-13T12:57:00Z</time>
      </trkpt>
      <trkpt lat="44.44659" lon="6.89348">
        <ele>2698.56</ele>
        <time>2023-02-13T12:57:23Z</time>
      </trkpt>
      <trkpt lat="44.4455" lon="6.8933">
        <ele>2657.7</ele>
        <time>2023-02-13T12:58:44Z</time>
      </trkpt>
      <trkpt lat="44.4453" lon="6.89354">
        <ele>2649.53</ele>
        <time>2023-02-13T12:59:15Z</time>
      </trkpt>
      <trkpt lat="44.44527" lon="6.89362">
        <ele>2649.05</ele>
        <time>2023-02-13T13:00:29Z</time>
      </trkpt>
      <trkpt lat="44.44527" lon="6.8936">
        <ele>2649.05</ele>
        <time>2023-02-13T13:05:40Z</time>
      </trkpt>
      <trkpt lat="44.44222" lon="6.89316">
        <ele>2476.49</ele>
        <time>2023-02-13T13:08:59Z</time>
      </trkpt>
      <trkpt lat="44.44221" lon="6.89317">
        <ele>2475.53</ele>
        <time>2023-02-13T13:10:19Z</time>
      </trkpt>
      <trkpt lat="44.43973" lon="6.89682">
        <ele>2427.47</ele>
        <time>2023-02-13T13:11:58Z</time>
      </trkpt>
      <trkpt lat="44.43967" lon="6.89689">
        <ele>2426.02</ele>
        <time>2023-02-13T13:12:45Z</time>
      </trkpt>
      <trkpt lat="44.4391" lon="6.89739">
        <ele>2398.15</ele>
        <time>2023-02-13T13:14:37Z</time>
      </trkpt>
      <trkpt lat="44.43908" lon="6.8975">
        <ele>2394.78</ele>
        <time>2023-02-13T13:15:24Z</time>
      </trkpt>
      <trkpt lat="44.43907" lon="6.89762">
        <ele>2390.46</ele>
        <time>2023-02-13T13:16:08Z</time>
      </trkpt>
      <trkpt lat="44.4389" lon="6.89803">
        <ele>2367.86</ele>
        <time>2023-02-13T13:17:19Z</time>
      </trkpt>
      <trkpt lat="44.43888" lon="6.89817">
        <ele>2364.02</ele>
        <time>2023-02-13T13:17:23Z</time>
      </trkpt>
      <trkpt lat="44.43881" lon="6.89826">
        <ele>2359.69</ele>
        <time>2023-02-13T13:17:27Z</time>
      </trkpt>
      <trkpt lat="44.4387" lon="6.89813">
        <ele>2354.41</ele>
        <time>2023-02-13T13:17:31Z</time>
      </trkpt>
      <trkpt lat="44.43866" lon="6.89825">
        <ele>2350.08</ele>
        <time>2023-02-13T13:17:34Z</time>
      </trkpt>
      <trkpt lat="44.43871" lon="6.89844">
        <ele>2346.23</ele>
        <time>2023-02-13T13:17:37Z</time>
      </trkpt>
      <trkpt lat="44.43875" lon="6.89857">
        <ele>2343.83</ele>
        <time>2023-02-13T13:17:41Z</time>
      </trkpt>
      <trkpt lat="44.43864" lon="6.89857">
        <ele>2338.54</ele>
        <time>2023-02-13T13:17:44Z</time>
      </trkpt>
      <trkpt lat="44.43854" lon="6.89858">
        <ele>2334.22</ele>
        <time>2023-02-13T13:17:49Z</time>
      </trkpt>
      <trkpt lat="44.43858" lon="6.89875">
        <ele>2330.85</ele>
        <time>2023-02-13T13:17:51Z</time>
      </trkpt>
      <trkpt lat="44.43865" lon="6.89905">
        <ele>2328.93</ele>
        <time>2023-02-13T13:17:55Z</time>
      </trkpt>
      <trkpt lat="44.4387" lon="6.89936">
        <ele>2325.09</ele>
        <time>2023-02-13T13:17:59Z</time>
      </trkpt>
      <trkpt lat="44.43876" lon="6.89957">
        <ele>2322.68</ele>
        <time>2023-02-13T13:18:02Z</time>
      </trkpt>
      <trkpt lat="44.4388" lon="6.89968">
        <ele>2322.2</ele>
        <time>2023-02-13T13:18:04Z</time>
      </trkpt>
      <trkpt lat="44.4387" lon="6.8998">
        <ele>2317.4</ele>
        <time>2023-02-13T13:18:07Z</time>
      </trkpt>
      <trkpt lat="44.43861" lon="6.89971">
        <ele>2315.47</ele>
        <time>2023-02-13T13:18:09Z</time>
      </trkpt>
      <trkpt lat="44.43857" lon="6.89958">
        <ele>2314.03</ele>
        <time>2023-02-13T13:18:16Z</time>
      </trkpt>
      <trkpt lat="44.43838" lon="6.89921">
        <ele>2309.7</ele>
        <time>2023-02-13T13:20:32Z</time>
      </trkpt>
      <trkpt lat="44.43831" lon="6.89907">
        <ele>2308.26</ele>
        <time>2023-02-13T13:20:35Z</time>
      </trkpt>
      <trkpt lat="44.43829" lon="6.8992">
        <ele>2304.9</ele>
        <time>2023-02-13T13:20:39Z</time>
      </trkpt>
      <trkpt lat="44.43813" lon="6.89924">
        <ele>2298.17</ele>
        <time>2023-02-13T13:20:43Z</time>
      </trkpt>
      <trkpt lat="44.43806" lon="6.89916">
        <ele>2297.21</ele>
        <time>2023-02-13T13:20:45Z</time>
      </trkpt>
      <trkpt lat="44.43796" lon="6.89922">
        <ele>2293.84</ele>
        <time>2023-02-13T13:20:48Z</time>
      </trkpt>
      <trkpt lat="44.43792" lon="6.89937">
        <ele>2290</ele>
        <time>2023-02-13T13:20:51Z</time>
      </trkpt>
      <trkpt lat="44.43783" lon="6.89933">
        <ele>2286.15</ele>
        <time>2023-02-13T13:20:53Z</time>
      </trkpt>
      <trkpt lat="44.4377" lon="6.89953">
        <ele>2280.87</ele>
        <time>2023-02-13T13:20:59Z</time>
      </trkpt>
      <trkpt lat="44.43766" lon="6.89959">
        <ele>2278.46</ele>
        <time>2023-02-13T13:21:07Z</time>
      </trkpt>
      <trkpt lat="44.43749" lon="6.8995">
        <ele>2274.14</ele>
        <time>2023-02-13T13:21:14Z</time>
      </trkpt>
      <trkpt lat="44.43747" lon="6.89975">
        <ele>2271.73</ele>
        <time>2023-02-13T13:21:18Z</time>
      </trkpt>
      <trkpt lat="44.43741" lon="6.89991">
        <ele>2269.33</ele>
        <time>2023-02-13T13:21:21Z</time>
      </trkpt>
      <trkpt lat="44.43732" lon="6.89991">
        <ele>2263.08</ele>
        <time>2023-02-13T13:21:53Z</time>
      </trkpt>
      <trkpt lat="44.43723" lon="6.8999">
        <ele>2259.24</ele>
        <time>2023-02-13T13:21:58Z</time>
      </trkpt>
      <trkpt lat="44.43719" lon="6.90017">
        <ele>2255.87</ele>
        <time>2023-02-13T13:22:20Z</time>
      </trkpt>
      <trkpt lat="44.43713" lon="6.90022">
        <ele>2251.54</ele>
        <time>2023-02-13T13:22:25Z</time>
      </trkpt>
      <trkpt lat="44.43703" lon="6.89997">
        <ele>2246.74</ele>
        <time>2023-02-13T13:22:44Z</time>
      </trkpt>
      <trkpt lat="44.43696" lon="6.89994">
        <ele>2241.45</ele>
        <time>2023-02-13T13:22:49Z</time>
      </trkpt>
      <trkpt lat="44.43687" lon="6.89997">
        <ele>2236.64</ele>
        <time>2023-02-13T13:22:53Z</time>
      </trkpt>
      <trkpt lat="44.43673" lon="6.89999">
        <ele>2229.43</ele>
        <time>2023-02-13T13:22:57Z</time>
      </trkpt>
      <trkpt lat="44.43661" lon="6.90004">
        <ele>2222.71</ele>
        <time>2023-02-13T13:23:00Z</time>
      </trkpt>
      <trkpt lat="44.43658" lon="6.90018">
        <ele>2220.3</ele>
        <time>2023-02-13T13:23:03Z</time>
      </trkpt>
      <trkpt lat="44.43657" lon="6.90036">
        <ele>2218.86</ele>
        <time>2023-02-13T13:23:14Z</time>
      </trkpt>
      <trkpt lat="44.43649" lon="6.9004">
        <ele>2216.94</ele>
        <time>2023-02-13T13:23:42Z</time>
      </trkpt>
      <trkpt lat="44.43642" lon="6.90023">
        <ele>2212.61</ele>
        <time>2023-02-13T13:23:45Z</time>
      </trkpt>
      <trkpt lat="44.43637" lon="6.90008">
        <ele>2211.17</ele>
        <time>2023-02-13T13:23:47Z</time>
      </trkpt>
      <trkpt lat="44.43635" lon="6.89993">
        <ele>2209.25</ele>
        <time>2023-02-13T13:23:49Z</time>
      </trkpt>
      <trkpt lat="44.4363" lon="6.89978">
        <ele>2209.25</ele>
        <time>2023-02-13T13:23:51Z</time>
      </trkpt>
      <trkpt lat="44.4363" lon="6.89964">
        <ele>2207.32</ele>
        <time>2023-02-13T13:23:53Z</time>
      </trkpt>
      <trkpt lat="44.43618" lon="6.89951">
        <ele>2202.52</ele>
        <time>2023-02-13T13:23:57Z</time>
      </trkpt>
      <trkpt lat="44.43599" lon="6.89933">
        <ele>2194.35</ele>
        <time>2023-02-13T13:24:01Z</time>
      </trkpt>
      <trkpt lat="44.43585" lon="6.89925">
        <ele>2190.5</ele>
        <time>2023-02-13T13:24:03Z</time>
      </trkpt>
      <trkpt lat="44.43556" lon="6.899">
        <ele>2183.29</ele>
        <time>2023-02-13T13:24:08Z</time>
      </trkpt>
      <trkpt lat="44.43549" lon="6.89883">
        <ele>2181.85</ele>
        <time>2023-02-13T13:24:10Z</time>
      </trkpt>
      <trkpt lat="44.43527" lon="6.89845">
        <ele>2178</ele>
        <time>2023-02-13T13:24:15Z</time>
      </trkpt>
      <trkpt lat="44.43518" lon="6.89824">
        <ele>2174.64</ele>
        <time>2023-02-13T13:24:17Z</time>
      </trkpt>
      <trkpt lat="44.43449" lon="6.89713">
        <ele>2160.22</ele>
        <time>2023-02-13T13:24:39Z</time>
      </trkpt>
      <trkpt lat="44.43418" lon="6.89621">
        <ele>2151.57</ele>
        <time>2023-02-13T13:25:59Z</time>
      </trkpt>
      <trkpt lat="44.43254" lon="6.89516">
        <ele>2102.06</ele>
        <time>2023-02-13T13:27:44Z</time>
      </trkpt>
      <trkpt lat="44.43243" lon="6.89512">
        <ele>2099.18</ele>
        <time>2023-02-13T13:28:02Z</time>
      </trkpt>
      <trkpt lat="44.43235" lon="6.89511">
        <ele>2095.81</ele>
        <time>2023-02-13T13:28:17Z</time>
      </trkpt>
      <trkpt lat="44.43196" lon="6.89499">
        <ele>2090.52</ele>
        <time>2023-02-13T13:28:40Z</time>
      </trkpt>
      <trkpt lat="44.43181" lon="6.89502">
        <ele>2088.6</ele>
        <time>2023-02-13T13:28:47Z</time>
      </trkpt>
      <trkpt lat="44.4315" lon="6.89511">
        <ele>2076.1</ele>
        <time>2023-02-13T13:29:43Z</time>
      </trkpt>
      <trkpt lat="44.4307" lon="6.89552">
        <ele>2049.67</ele>
        <time>2023-02-13T13:30:38Z</time>
      </trkpt>
      <trkpt lat="44.42826" lon="6.8931">
        <ele>1989.59</ele>
        <time>2023-02-13T13:32:39Z</time>
      </trkpt>
      <trkpt lat="44.42814" lon="6.89306">
        <ele>1988.62</ele>
        <time>2023-02-13T13:32:41Z</time>
      </trkpt>
      <trkpt lat="44.42796" lon="6.89301">
        <ele>1986.7</ele>
        <time>2023-02-13T13:32:49Z</time>
      </trkpt>
      <trkpt lat="44.42784" lon="6.893">
        <ele>1986.7</ele>
        <time>2023-02-13T13:33:07Z</time>
      </trkpt>
      <trkpt lat="44.42778" lon="6.8929">
        <ele>1983.34</ele>
        <time>2023-02-13T13:33:09Z</time>
      </trkpt>
      <trkpt lat="44.42768" lon="6.89278">
        <ele>1980.93</ele>
        <time>2023-02-13T13:33:12Z</time>
      </trkpt>
      <trkpt lat="44.42758" lon="6.89266">
        <ele>1978.05</ele>
        <time>2023-02-13T13:33:15Z</time>
      </trkpt>
      <trkpt lat="44.42749" lon="6.89258">
        <ele>1975.65</ele>
        <time>2023-02-13T13:33:18Z</time>
      </trkpt>
      <trkpt lat="44.42746" lon="6.89246">
        <ele>1973.72</ele>
        <time>2023-02-13T13:33:35Z</time>
      </trkpt>
      <trkpt lat="44.42741" lon="6.89236">
        <ele>1970.36</ele>
        <time>2023-02-13T13:34:01Z</time>
      </trkpt>
      <trkpt lat="44.42733" lon="6.89236">
        <ele>1967.48</ele>
        <time>2023-02-13T13:34:12Z</time>
      </trkpt>
      <trkpt lat="44.42723" lon="6.89242">
        <ele>1967.48</ele>
        <time>2023-02-13T13:35:03Z</time>
      </trkpt>
      <trkpt lat="44.4272" lon="6.89246">
        <ele>1966.51</ele>
        <time>2023-02-13T13:36:45Z</time>
      </trkpt>
      <trkpt lat="44.4272" lon="6.89247">
        <ele>1966.99</ele>
        <time>2023-02-13T13:44:23Z</time>
      </trkpt>
      <trkpt lat="44.42721" lon="6.89248">
        <ele>1959.3</ele>
        <time>2023-02-13T13:48:38Z</time>
      </trkpt>
      <trkpt lat="44.42722" lon="6.89248">
        <ele>1967.96</ele>
        <time>2023-02-13T13:48:48Z</time>
      </trkpt>
    </trkseg>
  </trk>
</gpx>